For More Information Regarding This Station Karrinyup Station

Station Historical Data
 
Daily Summary for April 20, 2014 Units:  Metric    English   Both
« Previous Day
Next Day »
Daily Weekly Monthly Yearly Custom
  Current: High: Low: Average:
Temperature: 23.7 °C 27.1 °C 13.5 °C 17.8 °C
Dew Point: 0.7 °C 11.4 °C -3.1 °C 6.9 °C
Humidity: 22% 71% 14% 51%
Wind Speed: 10.5km/h 15.4km/h 0km/h 3.9km/h
Wind Gust: 10.5km/h 18km/h - -
WindWNW - - SSE
Pressure: 1019.9 hPa 1022.9 hPa 1019.9 hPa -
Precipitation: 0 mm      
Historical Graphs
 
 
Tabular Data for April 20, 2014
Time Temperature Dew Point Pressure Wind Wind Speed Wind Gust Humidity Rainfall Rate (Hourly) solar Conditions
00:00 17 °C 7.3 °C 1020.9 hPa ESE 4 km/h 4 km/h 53% 0 mm VWS V14.01 W/m2
00:01 19.6 °C 6.7 °C 1021.9 hPa ENE 12.6 km/h 12.6 km/h 43% 0 mm VWS V14.01 W/m2
00:02 19.6 °C 6.7 °C 1021.9 hPa SSE 4.3 km/h 12.6 km/h 43% 0 mm VWS V14.01 W/m2
00:03 19.6 °C 6.7 °C 1021.9 hPa SSW 14 km/h 18 km/h 43% 0 mm VWS V14.01 W/m2
00:04 19.6 °C 7.1 °C 1021.9 hPa SSE 7.6 km/h 14 km/h 44% 0 mm VWS V14.01 W/m2
00:05 17 °C 7.3 °C 1020.9 hPa SSE 4.7 km/h 4.7 km/h 53% 0 mm VWS V14.01 W/m2
00:06 19.5 °C 6.9 °C 1021.9 hPa SSW 4.7 km/h 9 km/h 44% 0 mm VWS V14.01 W/m2
00:07 19.5 °C 6.9 °C 1021.9 hPa SSW 14 km/h 14 km/h 44% 0 mm VWS V14.01 W/m2
00:08 19.5 °C 6.9 °C 1021.9 hPa SSW 6.1 km/h 14 km/h 44% 0 mm VWS V14.01 W/m2
00:09 19.5 °C 7.3 °C 1021.9 hPa SSW 4 km/h 11.9 km/h 45% 0 mm VWS V14.01 W/m2
00:10 17 °C 7.3 °C 1020.9 hPa ESE 2.1 km/h 2.6 km/h 53% 0 mm VWS V14.01 W/m2
00:11 19.5 °C 7.3 °C 1021.9 hPa SSW 9.7 km/h 14 km/h 45% 0 mm VWS V14.01 W/m2
00:12 19.5 °C 7.3 °C 1021.9 hPa SSW 5.5 km/h 9.7 km/h 45% 0 mm VWS V14.01 W/m2
00:13 19.5 °C 7.6 °C 1021.9 hPa SSE 3.2 km/h 6.9 km/h 46% 0 mm VWS V14.01 W/m2
00:14 19.5 °C 7.6 °C 1021.9 hPa SW 9.7 km/h 10.1 km/h 46% 0 mm VWS V14.01 W/m2
00:15 16.9 °C 7.6 °C 1020.9 hPa ENE 4.7 km/h 4.7 km/h 54% 0 mm VWS V14.01 W/m2
00:16 19.4 °C 7.2 °C 1021.9 hPa ESE 8.7 km/h 8.7 km/h 45% 0 mm VWS V14.01 W/m2
00:17 19.4 °C 7.2 °C 1021.9 hPa South 4.7 km/h 8.7 km/h 45% 0 mm VWS V14.01 W/m2
00:18 19.4 °C 7.2 °C 1021.9 hPa SE 6.4 km/h 6.4 km/h 45% 0 mm VWS V14.01 W/m2
00:19 19.4 °C 7.2 °C 1021.9 hPa SSW 4.3 km/h 6.4 km/h 45% 0 mm VWS V14.01 W/m2
00:20 19.3 °C 7.1 °C 1021.9 hPa South 2.6 km/h 4.3 km/h 45% 0 mm VWS V14.01 W/m2
00:21 16.9 °C 7.3 °C 1020.9 hPa East 1.8 km/h 3.2 km/h 53% 0 mm VWS V14.01 W/m2
00:22 19.3 °C 7.1 °C 1021.9 hPa SSW 7.9 km/h 8.7 km/h 45% 0 mm VWS V14.01 W/m2
00:23 19.3 °C 7.4 °C 1021.9 hPa SSW 9 km/h 15.1 km/h 46% 0 mm VWS V14.01 W/m2
00:24 19.3 °C 7.7 °C 1021.9 hPa SSE 5.5 km/h 12.2 km/h 47% 0 mm VWS V14.01 W/m2
00:25 19.3 °C 7.7 °C 1021.9 hPa SSE 3.2 km/h 5.8 km/h 47% 0 mm VWS V14.01 W/m2
00:26 16.8 °C 6.6 °C 1020.9 hPa ESE 5.5 km/h 9.7 km/h 51% 0 mm VWS V14.01 W/m2
00:27 19.2 °C 7 °C 1021.9 hPa SSW 2.1 km/h 4 km/h 45% 0 mm VWS V14.01 W/m2
00:28 19.2 °C 7 °C 1021.9 hPa SSW 4.3 km/h 9 km/h 45% 0 mm VWS V14.01 W/m2
00:29 19.2 °C 7.3 °C 1021.9 hPa SSE 5.5 km/h 6.4 km/h 46% 0 mm VWS V14.01 W/m2
00:30 19.2 °C 7.3 °C 1021.9 hPa ESE 2.6 km/h 7.9 km/h 46% 0 mm VWS V14.01 W/m2
00:31 16.8 °C 6.6 °C 1020.9 hPa ESE 6.1 km/h 6.1 km/h 51% 0 mm VWS V14.01 W/m2
00:32 19.1 °C 7.2 °C 1021.9 hPa NE 7.9 km/h 7.9 km/h 46% 0 mm VWS V14.01 W/m2
00:33 19.1 °C 7.2 °C 1021.9 hPa SSW 4.7 km/h 7.9 km/h 46% 0 mm VWS V14.01 W/m2
00:34 19.2 °C 7.3 °C 1021.9 hPa SSE 15.4 km/h 15.4 km/h 46% 0 mm VWS V14.01 W/m2
00:35 19.1 °C 7.2 °C 1021.9 hPa SSW 3.2 km/h 15.4 km/h 46% 0 mm VWS V14.01 W/m2
00:36 16.8 °C 6.3 °C 1020.9 hPa East 3.2 km/h 7.9 km/h 50% 0 mm VWS V14.01 W/m2
00:37 19.1 °C 7.6 °C 1021.9 hPa SSW 4.3 km/h 6.9 km/h 47% 0 mm VWS V14.01 W/m2
00:38 19.1 °C 7.6 °C 1021.9 hPa SE 6.9 km/h 8.7 km/h 47% 0 mm VWS V14.01 W/m2
00:39 19.2 °C 7.6 °C 1021.9 hPa SSW 4.3 km/h 8.7 km/h 47% 0 mm VWS V14.01 W/m2
00:40 19.2 °C 7.6 °C 1021.9 hPa SSW 4.7 km/h 8.7 km/h 47% 0 mm VWS V14.01 W/m2
00:41 16.7 °C 6.2 °C 1021.9 hPa ENE 5 km/h 7.6 km/h 50% 0 mm VWS V14.01 W/m2
00:42 19.2 °C 7.6 °C 1021.9 hPa SSW 4.3 km/h 7.6 km/h 47% 0 mm VWS V14.01 W/m2
00:43 19.2 °C 7.6 °C 1021.9 hPa SSW 10.1 km/h 10.1 km/h 47% 0 mm VWS V14.01 W/m2
00:44 19.2 °C 7.9 °C 1021.9 hPa SSW 5.8 km/h 10.1 km/h 48% 0 mm VWS V14.01 W/m2
00:45 19.2 °C 7.9 °C 1021.9 hPa SSW 4 km/h 5.8 km/h 48% 0 mm VWS V14.01 W/m2
00:46 16.6 °C 6.4 °C 1021.9 hPa ESE 4 km/h 7.9 km/h 51% 0 mm VWS V14.01 W/m2
00:47 19.2 °C 7.9 °C 1021.9 hPa SSW 2.1 km/h 6.1 km/h 48% 0 mm VWS V14.01 W/m2
00:48 19.1 °C 7.8 °C 1021.9 hPa SSE 4.3 km/h 7.6 km/h 48% 0 mm VWS V14.01 W/m2
00:49 19.2 °C 7.9 °C 1021.9 hPa SW 5.5 km/h 10.1 km/h 48% 0 mm VWS V14.01 W/m2
00:50 19.1 °C 7.8 °C 1021.9 hPa South 3.2 km/h 6.1 km/h 48% 0 mm VWS V14.01 W/m2
00:51 16.5 °C 6.3 °C 1021.9 hPa ESE 1.8 km/h 4.3 km/h 51% 0 mm VWS V14.01 W/m2
00:52 19.1 °C 7.8 °C 1021.9 hPa SSW 5.8 km/h 5.8 km/h 48% 0 mm VWS V14.01 W/m2
00:53 19.1 °C 7.8 °C 1021.9 hPa SSE 5 km/h 6.4 km/h 48% 0 mm VWS V14.01 W/m2
00:54 19.1 °C 7.8 °C 1021.9 hPa SSE 4.3 km/h 9.7 km/h 48% 0 mm VWS V14.01 W/m2
00:55 19.1 °C 7.8 °C 1021.9 hPa SSW 6.4 km/h 6.4 km/h 48% 0 mm VWS V14.01 W/m2
00:56 16.5 °C 6.3 °C 1020.9 hPa ESE 4.7 km/h 6.9 km/h 51% 0 mm VWS V14.01 W/m2
00:57 19.1 °C 7.8 °C 1021.9 hPa SW 9.7 km/h 9.7 km/h 48% 0 mm VWS V14.01 W/m2
00:58 19.1 °C 8.2 °C 1021.9 hPa SSE 10.1 km/h 12.2 km/h 49% 0 mm VWS V14.01 W/m2
00:59 19.1 °C 8.4 °C 1021.9 hPa SSW 6.4 km/h 13.7 km/h 50% 0 mm VWS V14.01 W/m2
01:00 19.1 °C 8.4 °C 1021.9 hPa South 5 km/h 6.4 km/h 50% 0 mm VWS V14.01 W/m2
01:01 16.4 °C 6.6 °C 1020.9 hPa SSE 2.6 km/h 2.6 km/h 52% 0 mm VWS V14.01 W/m2
01:02 19.1 °C 8.4 °C 1021.9 hPa SSW 15.1 km/h 15.1 km/h 50% 0 mm VWS V14.01 W/m2
01:03 19.2 °C 9.1 °C 1021.9 hPa SSW 12.6 km/h 15.4 km/h 52% 0 mm VWS V14.01 W/m2
01:04 19.2 °C 9.1 °C 1021.9 hPa SSW 6.9 km/h 12.6 km/h 52% 0 mm VWS V14.01 W/m2
01:05 19.1 °C 9 °C 1021.9 hPa WSW 4 km/h 6.9 km/h 52% 0 mm VWS V14.01 W/m2
01:06 16.3 °C 6.4 °C 1020.9 hPa ENE 2.1 km/h 4.7 km/h 52% 0 mm VWS V14.01 W/m2
01:07 19.2 °C 9.1 °C 1021.9 hPa SE 5.8 km/h 8.7 km/h 52% 0 mm VWS V14.01 W/m2
01:08 19.2 °C 9.1 °C 1021.9 hPa South 4 km/h 9.7 km/h 52% 0 mm VWS V14.01 W/m2
01:09 19.2 °C 9.1 °C 1021.9 hPa SSW 8.7 km/h 8.7 km/h 52% 0 mm VWS V14.01 W/m2
01:10 19.2 °C 9.1 °C 1021.9 hPa South 6.1 km/h 9.3 km/h 52% 0 mm VWS V14.01 W/m2
01:11 16.2 °C 6.3 °C 1021.9 hPa East 4.7 km/h 4.7 km/h 52% 0 mm VWS V14.01 W/m2
01:12 19.2 °C 9.4 °C 1022.9 hPa SSE 5.8 km/h 6.4 km/h 53% 0 mm VWS V14.01 W/m2
01:13 19.2 °C 9.7 °C 1022.9 hPa SSE 10.5 km/h 10.5 km/h 54% 0 mm VWS V14.01 W/m2
01:14 19.2 °C 9.7 °C 1022.9 hPa SSW 6.9 km/h 10.5 km/h 54% 0 mm VWS V14.01 W/m2
01:15 19.2 °C 9.7 °C 1022.9 hPa South 10.1 km/h 10.1 km/h 54% 0 mm VWS V14.01 W/m2
01:16 16.1 °C 6.2 °C 1021.9 hPa SE 2.6 km/h 3.2 km/h 52% 0 mm VWS V14.01 W/m2
01:17 19.2 °C 9.7 °C 1022.9 hPa SSW 5 km/h 9.7 km/h 54% 0 mm VWS V14.01 W/m2
01:18 19.2 °C 9.7 °C 1022.9 hPa SSW 4.7 km/h 9.3 km/h 54% 0 mm VWS V14.01 W/m2
01:19 19.2 °C 9.7 °C 1022.9 hPa South 6.1 km/h 9.7 km/h 54% 0 mm VWS V14.01 W/m2
01:20 19.2 °C 9.9 °C 1022.9 hPa SSW 2.6 km/h 14 km/h 55% 0 mm VWS V14.01 W/m2
01:21 15.9 °C 6.3 °C 1021.9 hPa East 2.1 km/h 2.1 km/h 53% 0 mm VWS V14.01 W/m2
01:22 19.2 °C 9.9 °C 1022.9 hPa SSW 11.9 km/h 11.9 km/h 55% 0 mm VWS V14.01 W/m2
01:23 19.2 °C 9.9 °C 1022.9 hPa WSW 4.3 km/h 11.9 km/h 55% 0 mm VWS V14.01 W/m2
01:24 19.1 °C 9.8 °C 1022.9 hPa SSW 9 km/h 10.5 km/h 55% 0 mm VWS V14.01 W/m2
01:25 19.2 °C 9.9 °C 1022.9 hPa SSE 10.1 km/h 10.1 km/h 55% 0 mm VWS V14.01 W/m2
01:26 15.8 °C 6.2 °C 1020.9 hPa East 2.6 km/h 2.6 km/h 53% 0 mm VWS V14.01 W/m2
01:27 19.1 °C 10.1 °C 1022.9 hPa South 4 km/h 9.3 km/h 56% 0 mm VWS V14.01 W/m2
01:28 19.2 °C 10.2 °C 1022.9 hPa SSE 5 km/h 12.6 km/h 56% 0 mm VWS V14.01 W/m2
01:29 19.2 °C 10.2 °C 1022.9 hPa SSW 8.7 km/h 10.1 km/h 56% 0 mm VWS V14.01 W/m2
01:30 19.2 °C 10.2 °C 1022.9 hPa SE 5.5 km/h 9 km/h 56% 0 mm VWS V14.01 W/m2
01:31 15.8 °C 6.2 °C 1020.9 hPa ENE 4 km/h 4 km/h 53% 0 mm VWS V14.01 W/m2
01:32 19.2 °C 10.2 °C 1022.9 hPa SSE 11.9 km/h 11.9 km/h 56% 0 mm VWS V14.01 W/m2
01:33 19.2 °C 10.2 °C 1022.9 hPa SSE 8.7 km/h 11.9 km/h 56% 0 mm VWS V14.01 W/m2
01:34 19.2 °C 10.2 °C 1022.9 hPa NNE 5 km/h 10.1 km/h 56% 0 mm VWS V14.01 W/m2
01:35 19.2 °C 10.2 °C 1022.9 hPa SSW 5.5 km/h 9.3 km/h 56% 0 mm VWS V14.01 W/m2
01:36 15.7 °C 6.4 °C 1020.9 hPa East 1.4 km/h 2.6 km/h 54% 0 mm VWS V14.01 W/m2
01:37 19.2 °C 9.9 °C 1022.9 hPa SSW 4.3 km/h 5.8 km/h 55% 0 mm VWS V14.01 W/m2
01:38 19.2 °C 9.9 °C 1022.9 hPa South 12.6 km/h 12.6 km/h 55% 0 mm VWS V14.01 W/m2
01:39 19.2 °C 9.9 °C 1022.9 hPa SSW 6.1 km/h 12.6 km/h 55% 0 mm VWS V14.01 W/m2
01:40 19.2 °C 9.9 °C 1022.9 hPa SSW 2.6 km/h 9 km/h 55% 0 mm VWS V14.01 W/m2
01:41 15.6 °C 6.3 °C 1020.9 hPa East 3.2 km/h 3.5 km/h 54% 0 mm VWS V14.01 W/m2
01:42 19.1 °C 9.8 °C 1022.9 hPa SSE 2.6 km/h 5 km/h 55% 0 mm VWS V14.01 W/m2
01:43 19.2 °C 9.9 °C 1022.9 hPa ESE 8.7 km/h 10.8 km/h 55% 0 mm VWS V14.01 W/m2
01:44 19.2 °C 9.9 °C 1022.9 hPa SE 4.3 km/h 10.5 km/h 55% 0 mm VWS V14.01 W/m2
01:45 19.2 °C 10.2 °C 1022.9 hPa SE 8.7 km/h 9 km/h 56% 0 mm VWS V14.01 W/m2
01:46 15.6 °C 6.6 °C 1020.9 hPa ENE 1.8 km/h 1.8 km/h 55% 0 mm VWS V14.01 W/m2
01:47 19.2 °C 10.2 °C 1022.9 hPa SE 11.6 km/h 11.6 km/h 56% 0 mm VWS V14.01 W/m2
01:48 19.2 °C 10.2 °C 1022.9 hPa SSE 7.9 km/h 11.6 km/h 56% 0 mm VWS V14.01 W/m2
01:49 19.2 °C 10.2 °C 1022.9 hPa NNW 4.7 km/h 12.6 km/h 56% 0 mm VWS V14.01 W/m2
01:50 19.2 °C 10.2 °C 1022.9 hPa SSW 6.4 km/h 9.7 km/h 56% 0 mm VWS V14.01 W/m2
01:51 15.5 °C 6.5 °C 1020.9 hPa ESE 2.1 km/h 2.6 km/h 55% 0 mm VWS V14.01 W/m2
01:52 19.2 °C 10.2 °C 1022.9 hPa SSW 5 km/h 10.5 km/h 56% 0 mm VWS V14.01 W/m2
01:53 19.2 °C 10.2 °C 1022.9 hPa SSW 5 km/h 7.2 km/h 56% 0 mm VWS V14.01 W/m2
01:54 19.2 °C 10.2 °C 1022.9 hPa SSE 4.3 km/h 6.1 km/h 56% 0 mm VWS V14.01 W/m2
01:55 19.2 °C 10.2 °C 1022.9 hPa SW 6.9 km/h 6.9 km/h 56% 0 mm VWS V14.01 W/m2
01:56 15.6 °C 6.8 °C 1020.9 hPa East 2.6 km/h 4.3 km/h 56% 0 mm VWS V14.01 W/m2
01:57 19.2 °C 10.2 °C 1022.9 hPa SSW 6.9 km/h 8.7 km/h 56% 0 mm VWS V14.01 W/m2
01:58 19.2 °C 10.2 °C 1022.9 hPa SSW 4.3 km/h 7.9 km/h 56% 0 mm VWS V14.01 W/m2
01:59 19.1 °C 10.1 °C 1022.9 hPa SSW 12.2 km/h 12.2 km/h 56% 0 mm VWS V14.01 W/m2
02:00 19.2 °C 10.5 °C 1022.9 hPa SSW 5.5 km/h 12.2 km/h 57% 0 mm VWS V14.01 W/m2
02:01 15.6 °C 7.1 °C 1020.9 hPa ENE 5.5 km/h 5.5 km/h 57% 0 mm VWS V14.01 W/m2
02:02 19.2 °C 10.5 °C 1022.9 hPa SSE 5.8 km/h 11.6 km/h 57% 0 mm VWS V14.01 W/m2
02:03 19.2 °C 10.5 °C 1022.9 hPa SSE 7.9 km/h 9.7 km/h 57% 0 mm VWS V14.01 W/m2
02:04 19.1 °C 10.4 °C 1022.9 hPa SSE 1.8 km/h 7.9 km/h 57% 0 mm VWS V14.01 W/m2
02:05 19.1 °C 10.4 °C 1022.9 hPa NNW 6.4 km/h 6.4 km/h 57% 0 mm VWS V14.01 W/m2
02:06 19.1 °C 10.7 °C 1022.9 hPa SSW 6.9 km/h 6.9 km/h 58% 0 mm VWS V14.01 W/m2
02:07 15.7 °C 7.4 °C 1020.9 hPa ESE 4.3 km/h 6.4 km/h 58% 0 mm VWS V14.01 W/m2
02:08 19.1 °C 10.7 °C 1022.9 hPa SSW 10.1 km/h 10.1 km/h 58% 0 mm VWS V14.01 W/m2
02:09 19.1 °C 10.7 °C 1022.9 hPa SE 3.2 km/h 10.1 km/h 58% 0 mm VWS V14.01 W/m2
02:10 19.1 °C 10.7 °C 1022.9 hPa WSW 5.8 km/h 10.5 km/h 58% 0 mm VWS V14.01 W/m2
02:11 19.1 °C 10.7 °C 1021.9 hPa SSW 4 km/h 5.8 km/h 58% 0 mm VWS V14.01 W/m2
02:12 15.8 °C 7.6 °C 1020.9 hPa East 4.3 km/h 4.3 km/h 58% 0 mm VWS V14.01 W/m2
02:13 19.1 °C 10.9 °C 1021.9 hPa South 4.3 km/h 10.5 km/h 59% 0 mm VWS V14.01 W/m2
02:14 19.1 °C 10.9 °C 1021.9 hPa SSW 6.4 km/h 6.4 km/h 59% 0 mm VWS V14.01 W/m2
02:15 19.1 °C 10.9 °C 1021.9 hPa ESE 3.2 km/h 7.6 km/h 59% 0 mm VWS V14.01 W/m2
02:16 19.1 °C 10.9 °C 1021.9 hPa SSE 4.7 km/h 6.1 km/h 59% 0 mm VWS V14.01 W/m2
02:17 15.8 °C 7.3 °C 1020.9 hPa ENE 4.3 km/h 5 km/h 57% 0 mm VWS V14.01 W/m2
02:18 19.1 °C 10.9 °C 1021.9 hPa SSW 5.8 km/h 7.6 km/h 59% 0 mm VWS V14.01 W/m2
02:19 19.1 °C 11.2 °C 1021.9 hPa SSE 5.5 km/h 9.7 km/h 60% 0 mm VWS V14.01 W/m2
02:20 19.1 °C 11.2 °C 1021.9 hPa SE 6.1 km/h 6.1 km/h 60% 0 mm VWS V14.01 W/m2
02:21 19.1 °C 11.2 °C 1021.9 hPa SSE 5.5 km/h 6.9 km/h 60% 0 mm VWS V14.01 W/m2
02:22 15.8 °C 7.3 °C 1020.9 hPa ENE 2.6 km/h 3.5 km/h 57% 0 mm VWS V14.01 W/m2
02:23 19.1 °C 11.2 °C 1021.9 hPa SSE 5.8 km/h 5.8 km/h 60% 0 mm VWS V14.01 W/m2
02:24 19 °C 11.1 °C 1021.9 hPa SSW 4 km/h 5.8 km/h 60% 0 mm VWS V14.01 W/m2
02:25 19 °C 10.8 °C 1021.9 hPa SSE 9 km/h 11.9 km/h 59% 0 mm VWS V14.01 W/m2
02:26 19 °C 11.1 °C 1021.9 hPa SSW 5.5 km/h 10.1 km/h 60% 0 mm VWS V14.01 W/m2
02:27 15.9 °C 7.4 °C 1020.9 hPa ENE 6.1 km/h 8.7 km/h 57% 0 mm VWS V14.01 W/m2
02:28 19 °C 10.8 °C 1021.9 hPa SSE 3.2 km/h 8.7 km/h 59% 0 mm VWS V14.01 W/m2
02:29 19 °C 10.8 °C 1021.9 hPa SSW 4.7 km/h 6.4 km/h 59% 0 mm VWS V14.01 W/m2
02:30 19 °C 10.8 °C 1021.9 hPa South 2.6 km/h 6.1 km/h 59% 0 mm VWS V14.01 W/m2
02:31 19 °C 10.8 °C 1021.9 hPa SE 5 km/h 6.4 km/h 59% 0 mm VWS V14.01 W/m2
02:32 16 °C 6.9 °C 1020.9 hPa East 4.7 km/h 4.7 km/h 55% 0 mm VWS V14.01 W/m2
02:33 18.9 °C 10.7 °C 1021.9 hPa SSE 5 km/h 5 km/h 59% 0 mm VWS V14.01 W/m2
02:34 18.9 °C 10.7 °C 1021.9 hPa SSE 7.9 km/h 7.9 km/h 59% 0 mm VWS V14.01 W/m2
02:35 19 °C 10.6 °C 1021.9 hPa SSE 5 km/h 10.1 km/h 58% 0 mm VWS V14.01 W/m2
02:36 18.9 °C 10.7 °C 1021.9 hPa SSE 2.6 km/h 5.5 km/h 59% 0 mm VWS V14.01 W/m2
02:37 16.1 °C 6.8 °C 1020.9 hPa ENE 4.3 km/h 5.8 km/h 54% 0 mm VWS V14.01 W/m2
02:38 19 °C 10.6 °C 1021.9 hPa SSE 4.7 km/h 9 km/h 58% 0 mm VWS V14.01 W/m2
02:39 18.9 °C 10.4 °C 1021.9 hPa East 1.8 km/h 6.1 km/h 58% 0 mm VWS V14.01 W/m2
02:40 18.9 °C 10.4 °C 1021.9 hPa SSE 7.6 km/h 9.3 km/h 58% 0 mm VWS V14.01 W/m2
02:41 18.9 °C 10.4 °C 1021.9 hPa SSE 1.8 km/h 7.6 km/h 58% 0 mm VWS V14.01 W/m2
02:42 16 °C 6.4 °C 1020.9 hPa East 3.2 km/h 5 km/h 53% 0 mm VWS V14.01 W/m2
02:43 18.9 °C 10.4 °C 1021.9 hPa SSE 6.1 km/h 8.7 km/h 58% 0 mm VWS V14.01 W/m2
02:44 18.9 °C 10.2 °C 1021.9 hPa ESE 6.1 km/h 9.7 km/h 57% 0 mm VWS V14.01 W/m2
02:45 18.9 °C 10.2 °C 1021.9 hPa SSE 4 km/h 7.6 km/h 57% 0 mm VWS V14.01 W/m2
02:46 18.9 °C 10.2 °C 1021.9 hPa South 3.5 km/h 4.7 km/h 57% 0 mm VWS V14.01 W/m2
02:47 16 °C 6.4 °C 1020.9 hPa ENE 3.5 km/h 4.7 km/h 53% 0 mm VWS V14.01 W/m2
02:48 18.8 °C 10.1 °C 1021.9 hPa SE 5.5 km/h 6.9 km/h 57% 0 mm VWS V14.01 W/m2
02:49 18.8 °C 10.1 °C 1021.9 hPa SE 1.8 km/h 5.5 km/h 57% 0 mm VWS V14.01 W/m2
02:50 18.8 °C 10.1 °C 1021.9 hPa ESE 5.5 km/h 5.5 km/h 57% 0 mm VWS V14.01 W/m2
02:51 18.8 °C 10.1 °C 1021.9 hPa South 4 km/h 6.1 km/h 57% 0 mm VWS V14.01 W/m2
02:52 16.1 °C 6.2 °C 1020.9 hPa ENE 7.6 km/h 7.6 km/h 52% 0 mm VWS V14.01 W/m2
02:53 18.7 °C 10 °C 1021.9 hPa SSE 5.8 km/h 7.2 km/h 57% 0 mm VWS V14.01 W/m2
02:54 18.7 °C 10 °C 1021.9 hPa ENE 4 km/h 6.1 km/h 57% 0 mm VWS V14.01 W/m2
02:55 18.7 °C 10 °C 1021.9 hPa SSE 4.7 km/h 9 km/h 57% 0 mm VWS V14.01 W/m2
02:56 18.7 °C 10 °C 1021.9 hPa SSE 1.8 km/h 5.5 km/h 57% 0 mm VWS V14.01 W/m2
02:57 16.1 °C 6.2 °C 1020.9 hPa ENE 3.2 km/h 4.7 km/h 52% 0 mm VWS V14.01 W/m2
02:58 18.6 °C 9.7 °C 1021.9 hPa SSE 4.3 km/h 5.5 km/h 56% 0 mm VWS V14.01 W/m2
02:59 18.6 °C 9.7 °C 1021.9 hPa SSW 4.3 km/h 5.8 km/h 56% 0 mm VWS V14.01 W/m2
03:00 18.6 °C 9.7 °C 1021.9 hPa SSE 5.5 km/h 5.5 km/h 56% 0 mm VWS V14.01 W/m2
03:01 18.6 °C 9.7 °C 1021.9 hPa East 1.4 km/h 5.5 km/h 56% 0 mm VWS V14.01 W/m2
03:02 16 °C 5.9 °C 1020.9 hPa ENE 2.6 km/h 3.5 km/h 51% 0 mm VWS V14.01 W/m2
03:03 18.6 °C 9.7 °C 1021.9 hPa ESE 6.1 km/h 6.1 km/h 56% 0 mm VWS V14.01 W/m2
03:04 18.6 °C 9.9 °C 1021.9 hPa SSW 4 km/h 6.1 km/h 57% 0 mm VWS V14.01 W/m2
03:05 18.6 °C 9.9 °C 1021.9 hPa SSE 3.2 km/h 5 km/h 57% 0 mm VWS V14.01 W/m2
03:06 18.6 °C 9.9 °C 1021.9 hPa SSW 4.3 km/h 4.7 km/h 57% 0 mm VWS V14.01 W/m2
03:07 16 °C 5.9 °C 1020.9 hPa ESE 4.7 km/h 5.8 km/h 51% 0 mm VWS V14.01 W/m2
03:08 18.5 °C 9.6 °C 1021.9 hPa SSW 5 km/h 5 km/h 56% 0 mm VWS V14.01 W/m2
03:09 18.5 °C 9.8 °C 1021.9 hPa South 2.6 km/h 5 km/h 57% 0 mm VWS V14.01 W/m2
03:10 18.5 °C 9.8 °C 1021.9 hPa SSE 2.1 km/h 6.4 km/h 57% 0 mm VWS V14.01 W/m2
03:11 18.5 °C 9.8 °C 1021.9 hPa SSE 4.7 km/h 4.7 km/h 57% 0 mm VWS V14.01 W/m2
03:12 15.9 °C 5.8 °C 1020.9 hPa ESE 2.1 km/h 3.2 km/h 51% 0 mm VWS V14.01 W/m2
03:13 18.5 °C 9.8 °C 1021.9 hPa ESE 3.2 km/h 4 km/h 57% 0 mm VWS V14.01 W/m2
03:14 18.5 °C 9.8 °C 1021.9 hPa SSE 2.6 km/h 5.8 km/h 57% 0 mm VWS V14.01 W/m2
03:15 18.5 °C 9.8 °C 1021.9 hPa SSE 3.2 km/h 4.3 km/h 57% 0 mm VWS V14.01 W/m2
03:16 18.5 °C 9.8 °C 1021.9 hPa SSE 4.3 km/h 6.1 km/h 57% 0 mm VWS V14.01 W/m2
03:17 15.8 °C 5.7 °C 1020.9 hPa East 1.8 km/h 2.1 km/h 51% 0 mm VWS V14.01 W/m2
03:18 18.5 °C 9.8 °C 1021.9 hPa South 4 km/h 6.1 km/h 57% 0 mm VWS V14.01 W/m2
03:19 18.5 °C 9.8 °C 1021.9 hPa SSE 3.2 km/h 5.5 km/h 57% 0 mm VWS V14.01 W/m2
03:20 18.5 °C 9.8 °C 1021.9 hPa SSE 4.3 km/h 4.7 km/h 57% 0 mm VWS V14.01 W/m2
03:21 18.5 °C 9.8 °C 1021.9 hPa SSE 4 km/h 5.8 km/h 57% 0 mm VWS V14.01 W/m2
03:22 15.7 °C 5.6 °C 1020.9 hPa East 1.4 km/h 2.1 km/h 51% 0 mm VWS V14.01 W/m2
03:23 18.5 °C 9.8 °C 1021.9 hPa South 3.5 km/h 7.6 km/h 57% 0 mm VWS V14.01 W/m2
03:24 18.5 °C 9.8 °C 1021.9 hPa SE 6.9 km/h 6.9 km/h 57% 0 mm VWS V14.01 W/m2
03:25 18.5 °C 9.8 °C 1021.9 hPa SSW 5.5 km/h 6.9 km/h 57% 0 mm VWS V14.01 W/m2
03:26 18.5 °C 9.8 °C 1021.9 hPa SSW 6.1 km/h 6.1 km/h 57% 0 mm VWS V14.01 W/m2
03:27 15.6 °C 5.5 °C 1020.9 hPa East 2.1 km/h 3.2 km/h 51% 0 mm VWS V14.01 W/m2
03:28 18.5 °C 9.6 °C 1021.9 hPa WSW 1.8 km/h 4 km/h 56% 0 mm VWS V14.01 W/m2
03:29 18.5 °C 9.6 °C 1021.9 hPa SSE 4 km/h 9.3 km/h 56% 0 mm VWS V14.01 W/m2
03:30 18.5 °C 9.6 °C 1021.9 hPa SSE 5.8 km/h 5.8 km/h 56% 0 mm VWS V14.01 W/m2
03:31 18.5 °C 9.6 °C 1021.9 hPa SSE 5 km/h 5.8 km/h 56% 0 mm VWS V14.01 W/m2
03:32 18.5 °C 9.6 °C 1021.9 hPa SSE 3.2 km/h 6.4 km/h 56% 0 mm VWS V14.01 W/m2
03:33 15.4 °C 5.3 °C 1020.9 hPa Calm   1.4 km/h 51% 0 mm VWS V14.01 W/m2
03:34 18.5 °C 9.6 °C 1021.9 hPa SSE 3.5 km/h 5 km/h 56% 0 mm VWS V14.01 W/m2
03:35 18.5 °C 9.6 °C 1021.9 hPa SSE 6.1 km/h 7.6 km/h 56% 0 mm VWS V14.01 W/m2
03:36 18.5 °C 9.6 °C 1021.9 hPa SSE 2.6 km/h 9 km/h 56% 0 mm VWS V14.01 W/m2
03:37 18.5 °C 9.6 °C 1021.9 hPa ESE 5.8 km/h 6.4 km/h 56% 0 mm VWS V14.01 W/m2
03:38 15.3 °C 5.2 °C 1020.9 hPa Calm     51% 0 mm VWS V14.01 W/m2
03:39 18.4 °C 9.2 °C 1021.9 hPa SE 6.9 km/h 6.9 km/h 55% 0 mm VWS V14.01 W/m2
03:40 18.4 °C 9.2 °C 1021.9 hPa SSE 6.1 km/h 6.9 km/h 55% 0 mm VWS V14.01 W/m2
03:41 18.5 °C 9.3 °C 1021.9 hPa SE 3.5 km/h 9 km/h 55% 0 mm VWS V14.01 W/m2
03:42 18.4 °C 9.2 °C 1021.9 hPa South 3.5 km/h 4 km/h 55% 0 mm VWS V14.01 W/m2
03:43 15.1 °C 5.1 °C 1020.9 hPa Calm     51% 0 mm VWS V14.01 W/m2
03:44 18.4 °C 9.2 °C 1021.9 hPa SSE 6.4 km/h 6.4 km/h 55% 0 mm VWS V14.01 W/m2
03:45 18.4 °C 9.2 °C 1021.9 hPa SSW 3.5 km/h 6.4 km/h 55% 0 mm VWS V14.01 W/m2
03:46 18.4 °C 9.2 °C 1021.9 hPa SSW 6.4 km/h 6.4 km/h 55% 0 mm VWS V14.01 W/m2
03:47 18.4 °C 9.2 °C 1021.9 hPa SSE 5.5 km/h 6.4 km/h 55% 0 mm VWS V14.01 W/m2
03:48 15 °C 5.2 °C 1020.9 hPa SSE 2.1 km/h 2.1 km/h 52% 0 mm VWS V14.01 W/m2
03:49 18.3 °C 8.8 °C 1021.9 hPa SSE 4 km/h 4.3 km/h 54% 0 mm VWS V14.01 W/m2
03:50 18.3 °C 8.8 °C 1021.9 hPa South 3.2 km/h 5.5 km/h 54% 0 mm VWS V14.01 W/m2
03:51 18.2 °C 8.8 °C 1021.9 hPa SSE 4 km/h 4.3 km/h 54% 0 mm VWS V14.01 W/m2
03:52 18.2 °C 8.8 °C 1021.9 hPa Calm   5 km/h 54% 0 mm VWS V14.01 W/m2
03:53 14.9 °C 5.1 °C 1020.9 hPa SSW 1.8 km/h 2.1 km/h 52% 0 mm VWS V14.01 W/m2
03:54 18.2 °C 8.8 °C 1021.9 hPa SSE 1.4 km/h 1.8 km/h 54% 0 mm VWS V14.01 W/m2
03:55 18.1 °C 8.7 °C 1021.9 hPa SSE 3.2 km/h 4.3 km/h 54% 0 mm VWS V14.01 W/m2
03:56 18.1 °C 8.7 °C 1021.9 hPa SSE 2.1 km/h 4 km/h 54% 0 mm VWS V14.01 W/m2
03:57 18.1 °C 8.7 °C 1021.9 hPa SSE 1.4 km/h 3.2 km/h 54% 0 mm VWS V14.01 W/m2
03:58 14.9 °C 5.4 °C 1020.9 hPa Calm   2.6 km/h 53% 0 mm VWS V14.01 W/m2
03:59 18 °C 8.6 °C 1021.9 hPa SSW 5.5 km/h 5.5 km/h 54% 0 mm VWS V14.01 W/m2
04:00 18 °C 8.6 °C 1021.9 hPa South 2.1 km/h 5.5 km/h 54% 0 mm VWS V14.01 W/m2
04:01 18 °C 8.6 °C 1021.9 hPa South 4 km/h 5.8 km/h 54% 0 mm VWS V14.01 W/m2
04:02 18 °C 8.6 °C 1021.9 hPa Calm   4 km/h 54% 0 mm VWS V14.01 W/m2
04:03 14.8 °C 5.6 °C 1020.9 hPa SSE 1.4 km/h 1.8 km/h 54% 0 mm VWS V14.01 W/m2
04:04 18 °C 8.6 °C 1021.9 hPa SSE 3.5 km/h 4.3 km/h 54% 0 mm VWS V14.01 W/m2
04:05 18 °C 8.6 °C 1021.9 hPa Calm   4.7 km/h 54% 0 mm VWS V14.01 W/m2
04:06 17.9 °C 8.7 °C 1021.9 hPa SSE 6.9 km/h 6.9 km/h 55% 0 mm VWS V14.01 W/m2
04:07 17.9 °C 8.7 °C 1021.9 hPa SE 4.3 km/h 6.9 km/h 55% 0 mm VWS V14.01 W/m2
04:08 14.7 °C 5.5 °C 1020.9 hPa Calm     54% 0 mm VWS V14.01 W/m2
04:09 17.9 °C 8.7 °C 1021.9 hPa South 7.9 km/h 7.9 km/h 55% 0 mm VWS V14.01 W/m2
04:10 17.9 °C 8.7 °C 1021.9 hPa South 1.4 km/h 7.9 km/h 55% 0 mm VWS V14.01 W/m2
04:11 17.9 °C 8.7 °C 1021.9 hPa South 3.2 km/h 5.8 km/h 55% 0 mm VWS V14.01 W/m2
04:12 17.9 °C 8.7 °C 1021.9 hPa East 3.2 km/h 4 km/h 55% 0 mm VWS V14.01 W/m2
04:13 14.7 °C 5.8 °C 1020.9 hPa Calm   4 km/h 55% 0 mm VWS V14.01 W/m2
04:14 17.9 °C 8.7 °C 1021.9 hPa SSE 4.7 km/h 4.7 km/h 55% 0 mm VWS V14.01 W/m2
04:15 17.9 °C 8.7 °C 1021.9 hPa SSE 4.3 km/h 5 km/h 55% 0 mm VWS V14.01 W/m2
04:16 17.8 °C 8.7 °C 1021.9 hPa Calm   4.3 km/h 55% 0 mm VWS V14.01 W/m2
04:17 17.8 °C 8.7 °C 1021.9 hPa SSE 6.9 km/h 6.9 km/h 55% 0 mm VWS V14.01 W/m2
04:18 14.8 °C 6.4 °C 1020.9 hPa South 1.4 km/h 3.2 km/h 57% 0 mm VWS V14.01 W/m2
04:19 17.8 °C 8.7 °C 1021.9 hPa SSE 1.4 km/h 1.4 km/h 55% 0 mm VWS V14.01 W/m2
04:20 17.8 °C 8.9 °C 1021.9 hPa SSE 4.7 km/h 5.5 km/h 56% 0 mm VWS V14.01 W/m2
04:21 17.8 °C 8.9 °C 1021.9 hPa SSE 2.6 km/h 4.7 km/h 56% 0 mm VWS V14.01 W/m2
04:22 17.7 °C 8.8 °C 1021.9 hPa SSE 2.6 km/h 3.2 km/h 56% 0 mm VWS V14.01 W/m2
04:23 14.9 °C 6.7 °C 1020.9 hPa South 3.2 km/h 3.5 km/h 58% 0 mm VWS V14.01 W/m2
04:24 17.7 °C 8.8 °C 1021.9 hPa ESE 4.7 km/h 6.1 km/h 56% 0 mm VWS V14.01 W/m2
04:25 17.7 °C 8.8 °C 1021.9 hPa SSW 3.2 km/h 4.7 km/h 56% 0 mm VWS V14.01 W/m2
04:26 17.7 °C 8.8 °C 1021.9 hPa SSE 4 km/h 5.8 km/h 56% 0 mm VWS V14.01 W/m2
04:27 17.7 °C 8.8 °C 1021.9 hPa South 6.4 km/h 6.4 km/h 56% 0 mm VWS V14.01 W/m2
04:28 14.9 °C 6.9 °C 1021.9 hPa SSE 3.2 km/h 4.3 km/h 59% 0 mm VWS V14.01 W/m2
04:29 17.7 °C 8.8 °C 1021.9 hPa SSE 4.3 km/h 5.5 km/h 56% 0 mm VWS V14.01 W/m2
04:30 17.7 °C 8.8 °C 1021.9 hPa ESE 6.4 km/h 6.4 km/h 56% 0 mm VWS V14.01 W/m2
04:31 17.7 °C 8.8 °C 1021.9 hPa SSE 3.2 km/h 6.4 km/h 56% 0 mm VWS V14.01 W/m2
04:32 17.7 °C 8.8 °C 1021.9 hPa ESE 3.2 km/h 5.8 km/h 56% 0 mm VWS V14.01 W/m2
04:33 14.9 °C 6.9 °C 1021.9 hPa SSE 3.5 km/h 4 km/h 59% 0 mm VWS V14.01 W/m2
04:34 17.7 °C 8.8 °C 1021.9 hPa South 2.6 km/h 4.3 km/h 56% 0 mm VWS V14.01 W/m2
04:35 17.7 °C 8.8 °C 1021.9 hPa SSE 4.7 km/h 6.4 km/h 56% 0 mm VWS V14.01 W/m2
04:36 17.7 °C 8.8 °C 1021.9 hPa SSE 5 km/h 8.7 km/h 56% 0 mm VWS V14.01 W/m2
04:37 17.7 °C 8.8 °C 1021.9 hPa SSE 2.6 km/h 5 km/h 56% 0 mm VWS V14.01 W/m2
04:38 14.9 °C 7.2 °C 1021.9 hPa Calm     60% 0 mm VWS V14.01 W/m2
04:39 17.7 °C 8.8 °C 1021.9 hPa SSE 4 km/h 4.3 km/h 56% 0 mm VWS V14.01 W/m2
04:40 17.7 °C 8.8 °C 1021.9 hPa SSE 4 km/h 4.7 km/h 56% 0 mm VWS V14.01 W/m2
04:41 17.6 °C 8.7 °C 1021.9 hPa SSE 6.4 km/h 6.4 km/h 56% 0 mm VWS V14.01 W/m2
04:42 17.7 °C 8.8 °C 1021.9 hPa SSE 5.8 km/h 6.4 km/h 56% 0 mm VWS V14.01 W/m2
04:43 14.9 °C 6.9 °C 1020.9 hPa Calm     59% 0 mm VWS V14.01 W/m2
04:44 17.6 °C 8.4 °C 1021.9 hPa SSW 3.2 km/h 5 km/h 55% 0 mm VWS V14.01 W/m2
04:45 17.6 °C 8.4 °C 1021.9 hPa SSE 4 km/h 4 km/h 55% 0 mm VWS V14.01 W/m2
04:46 17.6 °C 8.4 °C 1021.9 hPa SSE 5.5 km/h 5.5 km/h 55% 0 mm VWS V14.01 W/m2
04:47 17.6 °C 8.4 °C 1021.9 hPa SSE 3.2 km/h 5.5 km/h 55% 0 mm VWS V14.01 W/m2
04:48 14.8 °C 6.9 °C 1020.9 hPa Calm     59% 0 mm VWS V14.01 W/m2
04:49 17.5 °C 8.4 °C 1021.9 hPa SSE 6.1 km/h 6.1 km/h 55% 0 mm VWS V14.01 W/m2
04:50 17.5 °C 8.4 °C 1021.9 hPa SSE 1.4 km/h 6.1 km/h 55% 0 mm VWS V14.01 W/m2
04:51 17.5 °C 8.4 °C 1021.9 hPa ESE 4 km/h 5.5 km/h 55% 0 mm VWS V14.01 W/m2
04:52 17.5 °C 8.4 °C 1021.9 hPa SSE 6.9 km/h 6.9 km/h 55% 0 mm VWS V14.01 W/m2
04:53 14.8 °C 7.1 °C 1020.9 hPa Calm     60% 0 mm VWS V14.01 W/m2
04:54 17.5 °C 8.4 °C 1021.9 hPa South 5 km/h 5 km/h 55% 0 mm VWS V14.01 W/m2
04:55 17.5 °C 8.4 °C 1021.9 hPa SSE 1.8 km/h 5 km/h 55% 0 mm VWS V14.01 W/m2
04:56 17.5 °C 8.4 °C 1021.9 hPa SSE 2.1 km/h 2.1 km/h 55% 0 mm VWS V14.01 W/m2
04:57 17.5 °C 8.4 °C 1021.9 hPa SE 2.6 km/h 7.9 km/h 55% 0 mm VWS V14.01 W/m2
04:58 14.8 °C 7.1 °C 1020.9 hPa ESE 4 km/h 4 km/h 60% 0 mm VWS V14.01 W/m2
04:59 17.5 °C 8.4 °C 1021.9 hPa SSE 7.9 km/h 7.9 km/h 55% 0 mm VWS V14.01 W/m2
05:00 17.5 °C 8.4 °C 1021.9 hPa South 4.3 km/h 9 km/h 55% 0 mm VWS V14.01 W/m2
05:01 17.5 °C 8.4 °C 1021.9 hPa SSE 6.4 km/h 6.4 km/h 55% 0 mm VWS V14.01 W/m2
05:02 17.5 °C 8.1 °C 1021.9 hPa East 2.6 km/h 6.4 km/h 54% 0 mm VWS V14.01 W/m2
05:03 14.7 °C 7 °C 1020.9 hPa South 1.8 km/h 3.5 km/h 60% 0 mm VWS V14.01 W/m2
05:04 17.5 °C 8.1 °C 1021.9 hPa SSE 4.3 km/h 6.9 km/h 54% 0 mm VWS V14.01 W/m2
05:05 17.5 °C 8.1 °C 1021.9 hPa SE 1.8 km/h 5 km/h 54% 0 mm VWS V14.01 W/m2
05:06 17.5 °C 8.1 °C 1021.9 hPa SSE 2.6 km/h 2.6 km/h 54% 0 mm VWS V14.01 W/m2
05:07 17.5 °C 7.8 °C 1021.9 hPa SSE 3.2 km/h 5.5 km/h 53% 0 mm VWS V14.01 W/m2
05:08 14.7 °C 7 °C 1020.9 hPa Calm   2.1 km/h 60% 0 mm VWS V14.01 W/m2
05:09 17.5 °C 7.8 °C 1021.9 hPa SSW 5 km/h 5 km/h 53% 0 mm VWS V14.01 W/m2
05:10 17.4 °C 7.7 °C 1021.9 hPa South 3.2 km/h 5.8 km/h 53% 0 mm VWS V14.01 W/m2
05:11 17.4 °C 7.7 °C 1021.9 hPa South 3.2 km/h 3.2 km/h 53% 0 mm VWS V14.01 W/m2
05:12 17.4 °C 7.7 °C 1021.9 hPa SSE 1.4 km/h 3.2 km/h 53% 0 mm VWS V14.01 W/m2
05:13 14.7 °C 7 °C 1021.9 hPa SE 2.1 km/h 2.1 km/h 60% 0 mm VWS V14.01 W/m2
05:14 17.3 °C 7.7 °C 1021.9 hPa SE 2.1 km/h 5.5 km/h 53% 0 mm VWS V14.01 W/m2
05:15 17.3 °C 7.3 °C 1021.9 hPa Calm   2.6 km/h 52% 0 mm VWS V14.01 W/m2
05:16 17.3 °C 7.3 °C 1021.9 hPa Calm     52% 0 mm VWS V14.01 W/m2
05:17 17.2 °C 7.3 °C 1021.9 hPa SSE 2.1 km/h 4.3 km/h 52% 0 mm VWS V14.01 W/m2
05:18 17.2 °C 7.3 °C 1021.9 hPa SSW 3.2 km/h 4.3 km/h 52% 0 mm VWS V14.01 W/m2
05:19 14.7 °C 7 °C 1021.9 hPa Calm     60% 0 mm VWS V14.01 W/m2
05:20 17.2 °C 7.3 °C 1021.9 hPa ENE 1.8 km/h 1.8 km/h 52% 0 mm VWS V14.01 W/m2
05:21 17.2 °C 7.3 °C 1021.9 hPa SE 4.3 km/h 5 km/h 52% 0 mm VWS V14.01 W/m2
05:22 17.2 °C 7.3 °C 1021.9 hPa ESE 6.9 km/h 6.9 km/h 52% 0 mm VWS V14.01 W/m2
05:23 17.2 °C 7.3 °C 1021.9 hPa South 1.8 km/h 6.9 km/h 52% 0 mm VWS V14.01 W/m2
05:24 14.6 °C 6.7 °C 1021.9 hPa South 1.8 km/h 1.8 km/h 59% 0 mm VWS V14.01 W/m2
05:25 17.1 °C 7.4 °C 1021.9 hPa SSE 1.8 km/h 5.8 km/h 53% 0 mm VWS V14.01 W/m2
05:26 17.1 °C 7.4 °C 1020.9 hPa South 3.5 km/h 4.7 km/h 53% 0 mm VWS V14.01 W/m2
05:27 17.1 °C 7.4 °C 1020.9 hPa ESE 3.2 km/h 3.5 km/h 53% 0 mm VWS V14.01 W/m2
05:28 17.1 °C 7.4 °C 1020.9 hPa SSE 4.7 km/h 6.4 km/h 53% 0 mm VWS V14.01 W/m2
05:29 14.5 °C 6.6 °C 1021.9 hPa Calm     59% 0 mm VWS V14.01 W/m2
05:30 17 °C 7.3 °C 1020.9 hPa ESE 2.1 km/h 4.7 km/h 53% 0 mm VWS V14.01 W/m2
05:31 17 °C 7.3 °C 1020.9 hPa ESE 4 km/h 4.3 km/h 53% 0 mm VWS V14.01 W/m2
05:32 17 °C 7.3 °C 1020.9 hPa ESE 4.3 km/h 4.3 km/h 53% 0 mm VWS V14.01 W/m2
05:33 17 °C 7.3 °C 1020.9 hPa SSE 2.6 km/h 4.3 km/h 53% 0 mm VWS V14.01 W/m2
05:34 14.4 °C 6.5 °C 1021.9 hPa Calm     59% 0 mm VWS V14.01 W/m2
05:35 17 °C 7.3 °C 1020.9 hPa SSW 2.6 km/h 4 km/h 53% 0 mm VWS V14.01 W/m2
05:36 17 °C 7.3 °C 1020.9 hPa ENE 1.8 km/h 4 km/h 53% 0 mm VWS V14.01 W/m2
05:37 17 °C 7.3 °C 1020.9 hPa SSE 4.3 km/h 6.1 km/h 53% 0 mm VWS V14.01 W/m2
05:38 17 °C 7.3 °C 1020.9 hPa ESE 4 km/h 6.1 km/h 53% 0 mm VWS V14.01 W/m2
05:39 14.4 °C 6.5 °C 1021.9 hPa Calm     59% 0 mm VWS V14.01 W/m2
05:40 17 °C 7.3 °C 1020.9 hPa SSE 4 km/h 4.7 km/h 53% 0 mm VWS V14.01 W/m2
05:41 17 °C 7.3 °C 1020.9 hPa ESE 2.6 km/h 4 km/h 53% 0 mm VWS V14.01 W/m2
05:42 17 °C 7.3 °C 1020.9 hPa SE 2.6 km/h 3.2 km/h 53% 0 mm VWS V14.01 W/m2
05:43 16.9 °C 7.6 °C 1020.9 hPa ESE 4.3 km/h 5.8 km/h 54% 0 mm VWS V14.01 W/m2
05:44 14.3 °C 6.4 °C 1021.9 hPa Calm     59% 0 mm VWS V14.01 W/m2
05:45 16.9 °C 7.6 °C 1020.9 hPa ESE 3.5 km/h 5.5 km/h 54% 0 mm VWS V14.01 W/m2
05:46 16.9 °C 7.6 °C 1020.9 hPa ESE 4.3 km/h 4.7 km/h 54% 0 mm VWS V14.01 W/m2
05:47 16.9 °C 7.6 °C 1020.9 hPa East 3.2 km/h 4.7 km/h 54% 0 mm VWS V14.01 W/m2
05:48 16.9 °C 7.6 °C 1020.9 hPa ESE 4.7 km/h 5.8 km/h 54% 0 mm VWS V14.01 W/m2
05:49 14.2 °C 6.6 °C 1021.9 hPa Calm     60% 0 mm VWS V14.01 W/m2
05:50 16.9 °C 7.3 °C 1020.9 hPa ENE 4.3 km/h 5 km/h 53% 0 mm VWS V14.01 W/m2
05:51 16.9 °C 7.3 °C 1020.9 hPa East 3.2 km/h 5.5 km/h 53% 0 mm VWS V14.01 W/m2
05:52 16.9 °C 7.3 °C 1020.9 hPa SSE 6.1 km/h 6.1 km/h 53% 0 mm VWS V14.01 W/m2
05:53 16.8 °C 7.2 °C 1020.9 hPa SSW 6.1 km/h 6.1 km/h 53% 0 mm VWS V14.01 W/m2
05:54 14.1 °C 6.4 °C 1021.9 hPa Calm     60% 0 mm VWS V14.01 W/m2
05:55 16.8 °C 6.9 °C 1020.9 hPa ENE 9.7 km/h 10.1 km/h 52% 0 mm VWS V14.01 W/m2
05:56 16.8 °C 6.9 °C 1020.9 hPa ESE 9.7 km/h 9.7 km/h 52% 0 mm VWS V14.01 W/m2
05:57 16.8 °C 6.6 °C 1020.9 hPa SSE 5.5 km/h 9.7 km/h 51% 0 mm VWS V14.01 W/m2
05:58 16.8 °C 6.6 °C 1020.9 hPa SSE 7.6 km/h 7.6 km/h 51% 0 mm VWS V14.01 W/m2
05:59 14 °C 6.4 °C 1021.9 hPa Calm     60% 0 mm VWS V14.01 W/m2
06:00 16.8 °C 6.6 °C 1020.9 hPa SSE 5.5 km/h 10.5 km/h 51% 0 mm VWS V14.01 W/m2
06:01 16.8 °C 6.6 °C 1020.9 hPa SSW 5.8 km/h 10.5 km/h 51% 0 mm VWS V14.01 W/m2
06:02 16.8 °C 6.3 °C 1020.9 hPa ESE 5.8 km/h 6.1 km/h 50% 0 mm VWS V14.01 W/m2
06:03 16.8 °C 6.3 °C 1020.9 hPa SSE 4 km/h 5.8 km/h 50% 0 mm VWS V14.01 W/m2
06:04 14 °C 6.4 °C 1021.9 hPa Calm     60% 0 mm VWS V14.01 W/m2
06:05 16.8 °C 6.3 °C 1020.9 hPa SSE 2.1 km/h 5.5 km/h 50% 0 mm VWS V14.01 W/m2
06:06 16.8 °C 6.3 °C 1020.9 hPa SSE 3.2 km/h 7.9 km/h 50% 0 mm VWS V14.01 W/m2
06:07 16.7 °C 6.2 °C 1020.9 hPa ESE 1.4 km/h 7.9 km/h 50% 0 mm VWS V14.01 W/m2
06:08 16.7 °C 6.2 °C 1020.9 hPa SSE 4 km/h 4.7 km/h 50% 0 mm VWS V14.01 W/m2
06:09 13.9 °C 6.5 °C 1021.9 hPa Calm     61% 0 mm VWS V14.01 W/m2
06:10 16.7 °C 6.2 °C 1020.9 hPa ESE 5 km/h 5 km/h 50% 0 mm VWS V14.01 W/m2
06:11 16.7 °C 6.2 °C 1020.9 hPa SSE 3.2 km/h 6.9 km/h 50% 0 mm VWS V14.01 W/m2
06:12 16.7 °C 6.2 °C 1021.9 hPa ESE 3.5 km/h 7.6 km/h 50% 0 mm VWS V14.01 W/m2
06:13 16.7 °C 6.2 °C 1021.9 hPa ESE 5 km/h 7.6 km/h 50% 0 mm VWS V14.01 W/m2
06:14 13.8 °C 6.4 °C 1021.9 hPa Calm     61% 0 mm VWS V14.01 W/m2
06:15 16.6 °C 6.2 °C 1021.9 hPa ENE 3.2 km/h 5 km/h 50% 0 mm VWS V14.01 W/m2
06:16 16.6 °C 6.2 °C 1021.9 hPa SSE 5 km/h 8.7 km/h 50% 0 mm VWS V14.01 W/m2
06:17 16.6 °C 6.4 °C 1021.9 hPa NE 3.2 km/h 7.9 km/h 51% 0 mm VWS V14.01 W/m2
06:18 16.6 °C 6.4 °C 1021.9 hPa SSE 5.5 km/h 6.4 km/h 51% 0 mm VWS V14.01 W/m2
06:19 13.7 °C 6.6 °C 1021.9 hPa Calm     62% 0 mm VWS V14.01 W/m2
06:20 16.6 °C 6.4 °C 1021.9 hPa SE 3.5 km/h 6.1 km/h 51% 0 mm VWS V14.01 W/m2
06:21 16.5 °C 6.3 °C 1021.9 hPa NNE 4 km/h 4.3 km/h 51% 0 mm VWS V14.01 W/m2
06:22 16.5 °C 6.3 °C 1021.9 hPa East 4.7 km/h 4.7 km/h 51% 0 mm VWS V14.01 W/m2
06:23 16.5 °C 6.3 °C 1021.9 hPa SSE 2.1 km/h 4.7 km/h 51% 0 mm VWS V14.01 W/m2
06:24 13.7 °C 6.8 °C 1021.9 hPa Calm     63% 0 mm VWS V14.01 W/m2
06:25 16.5 °C 6.3 °C 1021.9 hPa WSW 3.5 km/h 6.4 km/h 51% 0 mm VWS V14.01 W/m2
06:26 16.5 °C 6.3 °C 1020.9 hPa SSE 4 km/h 4 km/h 51% 0 mm VWS V14.01 W/m2
06:27 16.5 °C 6.3 °C 1020.9 hPa ESE 4.7 km/h 6.9 km/h 51% 0 mm VWS V14.01 W/m2
06:28 16.4 °C 6.2 °C 1020.9 hPa NNE 2.6 km/h 5 km/h 51% 0 mm VWS V14.01 W/m2
06:29 13.7 °C 6.8 °C 1020.9 hPa Calm     63% 0 mm VWS V14.01 W/m2
06:30 16.4 °C 6.6 °C 1020.9 hPa SSE 3.2 km/h 5 km/h 52% 0 mm VWS V14.01 W/m2
06:31 16.4 °C 6.6 °C 1020.9 hPa ENE 2.6 km/h 5.8 km/h 52% 0 mm VWS V14.01 W/m2
06:32 16.4 °C 6.6 °C 1020.9 hPa SE 1.8 km/h 2.6 km/h 52% 0 mm VWS V14.01 W/m2
06:33 16.4 °C 6.6 °C 1020.9 hPa SSE 3.5 km/h 3.5 km/h 52% 0 mm VWS V14.01 W/m2
06:34 13.7 °C 7.2 °C 1020.9 hPa Calm     65% 0 mm VWS V14.01 W/m2
06:35 16.3 °C 6.4 °C 1020.9 hPa ENE 3.2 km/h 3.2 km/h 52% 0 mm VWS V14.01 W/m2
06:36 16.3 °C 6.4 °C 1020.9 hPa ENE 4.7 km/h 4.7 km/h 52% 0 mm VWS V14.01 W/m2
06:37 16.3 °C 6.4 °C 1020.9 hPa ENE 2.1 km/h 4.7 km/h 52% 0 mm VWS V14.01 W/m2
06:38 16.3 °C 6.7 °C 1020.9 hPa ENE 4.3 km/h 6.1 km/h 53% 0 mm VWS V14.01 W/m2
06:39 13.6 °C 7.2 °C 1021.9 hPa Calm     65% 0 mm VWS V14.01 W/m2
06:40 16.2 °C 6.3 °C 1020.9 hPa East 2.6 km/h 3.5 km/h 52% 0 mm VWS V14.01 W/m2
06:41 16.2 °C 6.3 °C 1021.9 hPa East 2.6 km/h 4.7 km/h 52% 0 mm VWS V14.01 W/m2
06:42 16.2 °C 6.3 °C 1021.9 hPa East 4.7 km/h 4.7 km/h 52% 0 mm VWS V14.01 W/m2
06:43 16.1 °C 6.2 °C 1021.9 hPa ENE 3.5 km/h 4.7 km/h 52% 0 mm VWS V14.01 W/m2
06:44 13.6 °C 7.2 °C 1021.9 hPa Calm     65% 0 mm VWS V14.01 W/m2
06:45 16.1 °C 6.2 °C 1021.9 hPa Calm   3.2 km/h 52% 0 mm VWS V14.01 W/m2
06:46 16.1 °C 6.2 °C 1021.9 hPa ESE 1.4 km/h 3.5 km/h 52% 0 mm VWS V14.01 W/m2
06:47 16.1 °C 6.2 °C 1021.9 hPa SE 2.6 km/h 3.2 km/h 52% 0 mm VWS V14.01 W/m2
06:48 16 °C 6.4 °C 1021.9 hPa ENE 1.8 km/h 4.3 km/h 53% 0 mm VWS V14.01 W/m2
06:49 13.6 °C 7.2 °C 1021.9 hPa Calm     65% 0 mm VWS V14.01 W/m2
06:50 16 °C 6.4 °C 1021.9 hPa East 5 km/h 5 km/h 53% 0 mm VWS V14.01 W/m2
06:51 16 °C 6.4 °C 1021.9 hPa ENE 3.2 km/h 5 km/h 53% 0 mm VWS V14.01 W/m2
06:52 16 °C 6.4 °C 1021.9 hPa East 2.1 km/h 3.2 km/h 53% 0 mm VWS V14.01 W/m2
06:53 15.9 °C 6.3 °C 1021.9 hPa East 2.6 km/h 3.2 km/h 53% 0 mm VWS V14.01 W/m2
06:54 15.9 °C 6.3 °C 1021.9 hPa East 1.8 km/h 2.6 km/h 53% 0 mm VWS V14.01 W/m2
06:55 13.5 °C 7.1 °C 1021.9 hPa Calm     65% 0 mm VWS V14.01 W/m2
06:56 15.9 °C 6.3 °C 1020.9 hPa East 2.1 km/h 2.1 km/h 53% 0 mm VWS V14.01 W/m2
06:57 15.8 °C 6.2 °C 1020.9 hPa East 2.1 km/h 2.6 km/h 53% 0 mm VWS V14.01 W/m2
06:58 15.8 °C 6.2 °C 1020.9 hPa ENE 4.3 km/h 4.3 km/h 53% 0 mm VWS V14.01 W/m2
06:59 15.8 °C 6.2 °C 1020.9 hPa ENE 3.2 km/h 4.3 km/h 53% 0 mm VWS V14.01 W/m2
07:00 13.7 °C 7.7 °C 1021.9 hPa Calm     67% 0 mm VWS V14.01 W/m2
07:01 15.8 °C 6.2 °C 1020.9 hPa Calm   2.1 km/h 53% 0 mm VWS V14.01 W/m2
07:02 15.8 °C 6.2 °C 1020.9 hPa ENE 2.6 km/h 5.8 km/h 53% 0 mm VWS V14.01 W/m2
07:03 15.8 °C 6.5 °C 1020.9 hPa East 3.2 km/h 4 km/h 54% 0 mm VWS V14.01 W/m2
07:04 15.8 °C 6.5 °C 1020.9 hPa ENE 1.8 km/h 4.3 km/h 54% 0 mm VWS V14.01 W/m2
07:05 13.7 °C 7.7 °C 1021.9 hPa Calm     67% 0 mm VWS V14.01 W/m2
07:06 15.7 °C 6.4 °C 1020.9 hPa East 2.1 km/h 2.1 km/h 54% 0 mm VWS V14.01 W/m2
07:07 15.7 °C 6.4 °C 1020.9 hPa East 2.6 km/h 2.6 km/h 54% 0 mm VWS V14.01 W/m2
07:08 15.7 °C 6.4 °C 1020.9 hPa East 3.2 km/h 3.2 km/h 54% 0 mm VWS V14.01 W/m2
07:09 15.7 °C 6.4 °C 1020.9 hPa East 1.8 km/h 4.3 km/h 54% 0 mm VWS V14.01 W/m2
07:10 14.3 °C 8.9 °C 1021.9 hPa Calm     70% 0 mm VWS V14.01 W/m2
07:11 15.6 °C 6.3 °C 1020.9 hPa Calm   3.2 km/h 54% 0 mm VWS V14.01 W/m2
07:12 15.6 °C 6.3 °C 1020.9 hPa East 3.5 km/h 3.5 km/h 54% 0 mm VWS V14.01 W/m2
07:13 15.6 °C 6.3 °C 1020.9 hPa ENE 3.2 km/h 4 km/h 54% 0 mm VWS V14.01 W/m2
07:14 15.6 °C 6.3 °C 1020.9 hPa ENE 1.8 km/h 3.2 km/h 54% 0 mm VWS V14.01 W/m2
07:15 14.7 °C 9.5 °C 1021.9 hPa Calm   1.8 km/h 71% 0 mm VWS V14.01 W/m2
07:16 15.6 °C 6.6 °C 1020.9 hPa ENE 2.1 km/h 4.7 km/h 55% 0 mm VWS V14.01 W/m2
07:17 15.6 °C 6.6 °C 1020.9 hPa ENE 1.4 km/h 2.6 km/h 55% 0 mm VWS V14.01 W/m2
07:18 15.6 °C 6.6 °C 1020.9 hPa Calm   3.2 km/h 55% 0 mm VWS V14.01 W/m2
07:19 15.6 °C 6.6 °C 1020.9 hPa ENE 2.1 km/h 2.1 km/h 55% 0 mm VWS V14.01 W/m2
07:20 15.1 °C 9.9 °C 1021.9 hPa Calm     71% 0 mm VWS V14.01 W/m2
07:21 15.5 °C 6.5 °C 1020.9 hPa ESE 3.2 km/h 3.5 km/h 55% 0 mm VWS V14.01 W/m2
07:22 15.5 °C 6.5 °C 1020.9 hPa ESE 2.6 km/h 4.3 km/h 55% 0 mm VWS V14.01 W/m2
07:23 15.5 °C 6.5 °C 1020.9 hPa ESE 2.6 km/h 4.3 km/h 55% 0 mm VWS V14.01 W/m2
07:24 15.5 °C 6.5 °C 1020.9 hPa East 2.6 km/h 3.2 km/h 55% 0 mm VWS V14.01 W/m2
07:25 15.5 °C 10.3 °C 1021.9 hPa Calm   4.3 km/h 71% 0 mm VWS V14.01 W/m2
07:26 15.6 °C 6.8 °C 1020.9 hPa ESE 3.5 km/h 4.7 km/h 56% 0 mm VWS V14.01 W/m2
07:27 15.6 °C 6.8 °C 1020.9 hPa East 4.3 km/h 4.7 km/h 56% 0 mm VWS V14.01 W/m2
07:28 15.6 °C 6.8 °C 1020.9 hPa ENE 3.2 km/h 4.7 km/h 56% 0 mm VWS V14.01 W/m2
07:29 15.6 °C 7.1 °C 1020.9 hPa ENE 2.1 km/h 4.7 km/h 57% 0 mm VWS V14.01 W/m2
07:30 16.2 °C 10.7 °C 1021.9 hPa SSE 1.8 km/h 1.8 km/h 70% 0 mm VWS V14.01 W/m2
07:31 15.6 °C 7.1 °C 1020.9 hPa East 4 km/h 5.8 km/h 57% 0 mm VWS V14.01 W/m2
07:32 15.6 °C 7.1 °C 1020.9 hPa East 4 km/h 5 km/h 57% 0 mm VWS V14.01 W/m2
07:33 15.6 °C 7.1 °C 1020.9 hPa ENE 3.2 km/h 5.5 km/h 57% 0 mm VWS V14.01 W/m2
07:34 15.6 °C 7.1 °C 1020.9 hPa East 4.3 km/h 4.3 km/h 57% 0 mm VWS V14.01 W/m2
07:35 16.8 °C 11.3 °C 1021.9 hPa SSE 4 km/h 4 km/h 70% 0 mm VWS V14.01 W/m2
07:36 15.7 °C 7.4 °C 1020.9 hPa East 5.5 km/h 5.5 km/h 58% 0 mm VWS V14.01 W/m2
07:37 15.7 °C 7.4 °C 1020.9 hPa East 5.8 km/h 5.8 km/h 58% 0 mm VWS V14.01 W/m2
07:38 15.7 °C 7.4 °C 1020.9 hPa East 4 km/h 6.4 km/h 58% 0 mm VWS V14.01 W/m2
07:39 15.7 °C 7.4 °C 1020.9 hPa East 4 km/h 4 km/h 58% 0 mm VWS V14.01 W/m2
07:40 17.2 °C 11.2 °C 1020.9 hPa SSE 4.3 km/h 4.3 km/h 68% 0 mm VWS V14.01 W/m2
07:41 15.7 °C 7.4 °C 1020.9 hPa ENE 4 km/h 4.3 km/h 58% 0 mm VWS V14.01 W/m2
07:42 15.8 °C 7.6 °C 1020.9 hPa ENE 2.6 km/h 4.3 km/h 58% 0 mm VWS V14.01 W/m2
07:43 15.8 °C 7.6 °C 1020.9 hPa ENE 4.3 km/h 4.3 km/h 58% 0 mm VWS V14.01 W/m2
07:44 15.8 °C 7.6 °C 1020.9 hPa ENE 3.2 km/h 4.3 km/h 58% 0 mm VWS V14.01 W/m2
07:45 17.8 °C 11.4 °C 1020.9 hPa SSE 1.8 km/h 3.5 km/h 66% 0 mm VWS V14.01 W/m2
07:46 15.8 °C 7.6 °C 1020.9 hPa East 4.3 km/h 4.3 km/h 58% 0 mm VWS V14.01 W/m2
07:47 15.8 °C 7.3 °C 1020.9 hPa East 4.7 km/h 4.7 km/h 57% 0 mm VWS V14.01 W/m2
07:48 15.8 °C 7.6 °C 1020.9 hPa ESE 5.5 km/h 6.1 km/h 58% 0 mm VWS V14.01 W/m2
07:49 15.8 °C 7.6 °C 1020.9 hPa ENE 4.7 km/h 5.5 km/h 58% 0 mm VWS V14.01 W/m2
07:50 18.2 °C 10.8 °C 1020.9 hPa Calm     62% 0 mm VWS V14.01 W/m2
07:51 15.8 °C 7.3 °C 1020.9 hPa East 5.5 km/h 5.5 km/h 57% 0 mm VWS V14.01 W/m2
07:52 15.8 °C 7.3 °C 1020.9 hPa East 3.5 km/h 5.5 km/h 57% 0 mm VWS V14.01 W/m2
07:53 15.8 °C 7.3 °C 1020.9 hPa ENE 4 km/h 4 km/h 57% 0 mm VWS V14.01 W/m2
07:54 15.8 °C 7.3 °C 1020.9 hPa ESE 6.4 km/h 6.9 km/h 57% 0 mm VWS V14.01 W/m2
07:55 19 °C 10.6 °C 1021.9 hPa Calm     58% 0 mm VWS V14.01 W/m2
07:56 15.9 °C 7.4 °C 1020.9 hPa ENE 5.5 km/h 5.5 km/h 57% 0 mm VWS V14.01 W/m2
07:57 15.9 °C 7.4 °C 1020.9 hPa ENE 8.7 km/h 8.7 km/h 57% 0 mm VWS V14.01 W/m2
07:58 15.9 °C 7.4 °C 1020.9 hPa East 4 km/h 8.7 km/h 57% 0 mm VWS V14.01 W/m2
07:59 15.9 °C 7.4 °C 1020.9 hPa ENE 4.7 km/h 4.7 km/h 57% 0 mm VWS V14.01 W/m2
08:00 19.1 °C 8.4 °C 1021.9 hPa SSE 2.6 km/h 5 km/h 50% 0 mm VWS V14.01 W/m2
08:01 16 °C 7.2 °C 1020.9 hPa ESE 4 km/h 5 km/h 56% 0 mm VWS V14.01 W/m2
08:02 16 °C 7.2 °C 1020.9 hPa ESE 4 km/h 9.7 km/h 56% 0 mm VWS V14.01 W/m2
08:03 16 °C 6.9 °C 1020.9 hPa East 8.7 km/h 8.7 km/h 55% 0 mm VWS V14.01 W/m2
08:04 16 °C 6.9 °C 1020.9 hPa ENE 5.8 km/h 8.7 km/h 55% 0 mm VWS V14.01 W/m2
08:05 19.6 °C 8.3 °C 1021.9 hPa SSE 1.8 km/h 1.8 km/h 48% 0 mm VWS V14.01 W/m2
08:06 16 °C 6.9 °C 1020.9 hPa East 7.9 km/h 7.9 km/h 55% 0 mm VWS V14.01 W/m2
08:07 16.1 °C 6.8 °C 1020.9 hPa ENE 5.8 km/h 7.9 km/h 54% 0 mm VWS V14.01 W/m2
08:08 16.1 °C 6.8 °C 1020.9 hPa East 5 km/h 5.8 km/h 54% 0 mm VWS V14.01 W/m2
08:09 16.1 °C 6.8 °C 1020.9 hPa ENE 4 km/h 8.7 km/h 54% 0 mm VWS V14.01 W/m2
08:10 19.9 °C 7.6 °C 1020.9 hPa South 4 km/h 4 km/h 45% 0 mm VWS V14.01 W/m2
08:11 16.1 °C 6.8 °C 1020.9 hPa East 3.5 km/h 5.8 km/h 54% 0 mm VWS V14.01 W/m2
08:12 16 °C 6.4 °C 1020.9 hPa ESE 4 km/h 4.3 km/h 53% 0 mm VWS V14.01 W/m2
08:13 16 °C 6.4 °C 1020.9 hPa East 3.2 km/h 5 km/h 53% 0 mm VWS V14.01 W/m2
08:14 16 °C 6.4 °C 1020.9 hPa East 4.7 km/h 5.5 km/h 53% 0 mm VWS V14.01 W/m2
08:15 20.2 °C 7.2 °C 1020.9 hPa South 1.4 km/h 3.5 km/h 43% 0 mm VWS V14.01 W/m2
08:16 16 °C 6.4 °C 1020.9 hPa East 2.6 km/h 3.5 km/h 53% 0 mm VWS V14.01 W/m2
08:17 16 °C 6.4 °C 1020.9 hPa ESE 2.6 km/h 4.3 km/h 53% 0 mm VWS V14.01 W/m2
08:18 16 °C 6.4 °C 1020.9 hPa ENE 3.5 km/h 4.7 km/h 53% 0 mm VWS V14.01 W/m2
08:19 16 °C 6.4 °C 1020.9 hPa East 4 km/h 5.5 km/h 53% 0 mm VWS V14.01 W/m2
08:20 20.5 °C 7.2 °C 1020.9 hPa SSE 1.8 km/h 3.2 km/h 42% 0 mm VWS V14.01 W/m2
08:21 16 °C 6.2 °C 1020.9 hPa East 4.7 km/h 4.7 km/h 52% 0 mm VWS V14.01 W/m2
08:22 16 °C 6.2 °C 1020.9 hPa East 6.1 km/h 6.9 km/h 52% 0 mm VWS V14.01 W/m2
08:23 16.1 °C 6.2 °C 1020.9 hPa ENE 5 km/h 7.6 km/h 52% 0 mm VWS V14.01 W/m2
08:24 16.1 °C 6.2 °C 1020.9 hPa ENE 4 km/h 6.1 km/h 52% 0 mm VWS V14.01 W/m2
08:25 20.9 °C 6.8 °C 1021.9 hPa SSE 4.3 km/h 4.3 km/h 40% 0 mm VWS V14.01 W/m2
08:26 16.1 °C 6.2 °C 1020.9 hPa ESE 3.2 km/h 4.7 km/h 52% 0 mm VWS V14.01 W/m2
08:27 16.1 °C 6.2 °C 1020.9 hPa ESE 2.6 km/h 8.7 km/h 52% 0 mm VWS V14.01 W/m2
08:28 16.1 °C 6.2 °C 1020.9 hPa ENE 3.2 km/h 4.7 km/h 52% 0 mm VWS V14.01 W/m2
08:29 16.1 °C 6.2 °C 1020.9 hPa East 4 km/h 4.7 km/h 52% 0 mm VWS V14.01 W/m2
08:30 21.2 °C 6.3 °C 1021.9 hPa SSW 2.6 km/h 2.6 km/h 38% 0 mm VWS V14.01 W/m2
08:31 16.1 °C 5.9 °C 1020.9 hPa ENE 3.5 km/h 4.3 km/h 51% 0 mm VWS V14.01 W/m2
08:32 16.1 °C 5.9 °C 1020.9 hPa East 2.6 km/h 4 km/h 51% 0 mm VWS V14.01 W/m2
08:33 16 °C 5.9 °C 1020.9 hPa ENE 2.6 km/h 3.5 km/h 51% 0 mm VWS V14.01 W/m2
08:34 16 °C 5.9 °C 1020.9 hPa East 4 km/h 6.9 km/h 51% 0 mm VWS V14.01 W/m2
08:35 21.4 °C 6.5 °C 1021.9 hPa ESE 2.1 km/h 2.1 km/h 38% 0 mm VWS V14.01 W/m2
08:36 16 °C 5.9 °C 1020.9 hPa East 4 km/h 4.7 km/h 51% 0 mm VWS V14.01 W/m2
08:37 16 °C 5.9 °C 1020.9 hPa East 4.7 km/h 4.7 km/h 51% 0 mm VWS V14.01 W/m2
08:38 16 °C 5.9 °C 1020.9 hPa ESE 5.8 km/h 6.4 km/h 51% 0 mm VWS V14.01 W/m2
08:39 16 °C 5.9 °C 1020.9 hPa ENE 2.6 km/h 5.8 km/h 51% 0 mm VWS V14.01 W/m2
08:40 15.9 °C 5.8 °C 1020.9 hPa East 3.2 km/h 4.3 km/h 51% 0 mm VWS V14.01 W/m2
08:41 21.7 °C 5.2 °C 1021.9 hPa SSE 3.5 km/h 5 km/h 34% 0 mm VWS V14.01 W/m2
08:42 15.9 °C 5.8 °C 1020.9 hPa ESE 5.5 km/h 5.5 km/h 51% 0 mm VWS V14.01 W/m2
08:43 15.9 °C 5.8 °C 1020.9 hPa ESE 1.4 km/h 5.5 km/h 51% 0 mm VWS V14.01 W/m2
08:44 15.9 °C 5.8 °C 1020.9 hPa ESE 4 km/h 4 km/h 51% 0 mm VWS V14.01 W/m2
08:45 15.9 °C 5.8 °C 1020.9 hPa ESE 1.4 km/h 4 km/h 51% 0 mm VWS V14.01 W/m2
08:46 21.6 °C 4.2 °C 1021.9 hPa East 2.6 km/h 4.3 km/h 32% 0 mm VWS V14.01 W/m2
08:47 15.9 °C 5.8 °C 1020.9 hPa East 3.5 km/h 5.8 km/h 51% 0 mm VWS V14.01 W/m2
08:48 15.8 °C 5.7 °C 1020.9 hPa East 2.1 km/h 3.5 km/h 51% 0 mm VWS V14.01 W/m2
08:49 15.8 °C 5.7 °C 1020.9 hPa East 1.8 km/h 2.1 km/h 51% 0 mm VWS V14.01 W/m2
08:50 15.8 °C 5.7 °C 1020.9 hPa East 2.1 km/h 2.6 km/h 51% 0 mm VWS V14.01 W/m2
08:51 22.2 °C 3.8 °C 1021.9 hPa Calm     30% 0 mm VWS V14.01 W/m2
08:52 15.8 °C 5.7 °C 1020.9 hPa ESE 2.6 km/h 2.6 km/h 51% 0 mm VWS V14.01 W/m2
08:53 15.7 °C 5.6 °C 1020.9 hPa East 1.8 km/h 2.6 km/h 51% 0 mm VWS V14.01 W/m2
08:54 15.7 °C 5.6 °C 1020.9 hPa ESE 3.2 km/h 3.2 km/h 51% 0 mm VWS V14.01 W/m2
08:55 15.6 °C 5.5 °C 1020.9 hPa ESE 1.8 km/h 3.2 km/h 51% 0 mm VWS V14.01 W/m2
08:56 22.3 °C 1.9 °C 1020.9 hPa NE 9 km/h 9 km/h 26% 0 mm VWS V14.01 W/m2
08:57 15.6 °C 5.5 °C 1020.9 hPa ESE 1.4 km/h 1.8 km/h 51% 0 mm VWS V14.01 W/m2
08:58 15.6 °C 5.5 °C 1020.9 hPa East 3.2 km/h 4 km/h 51% 0 mm VWS V14.01 W/m2
08:59 15.6 °C 5.5 °C 1020.9 hPa East 1.8 km/h 3.2 km/h 51% 0 mm VWS V14.01 W/m2
09:00 15.5 °C 5.4 °C 1020.9 hPa East 2.1 km/h 2.1 km/h 51% 0 mm VWS V14.01 W/m2
09:01 22.2 °C 0.7 °C 1020.9 hPa South 2.6 km/h 2.6 km/h 24% 0 mm VWS V14.01 W/m2
09:02 15.5 °C 5.4 °C 1020.9 hPa East 1.8 km/h 1.8 km/h 51% 0 mm VWS V14.01 W/m2
09:03 15.4 °C 5.3 °C 1020.9 hPa East 1.4 km/h 1.8 km/h 51% 0 mm VWS V14.01 W/m2
09:04 15.4 °C 5.3 °C 1020.9 hPa Calm   1.4 km/h 51% 0 mm VWS V14.01 W/m2
09:05 15.4 °C 5.3 °C 1020.9 hPa Calm   1.8 km/h 51% 0 mm VWS V14.01 W/m2
09:06 22.6 °C 1 °C 1020.9 hPa NE 3.2 km/h 4.3 km/h 24% 0 mm VWS V14.01 W/m2
09:07 15.3 °C 5.2 °C 1020.9 hPa Calm     51% 0 mm VWS V14.01 W/m2
09:08 15.3 °C 5.2 °C 1020.9 hPa Calm     51% 0 mm VWS V14.01 W/m2
09:09 15.2 °C 5.1 °C 1020.9 hPa Calm     51% 0 mm VWS V14.01 W/m2
09:10 15.2 °C 5.1 °C 1020.9 hPa Calm     51% 0 mm VWS V14.01 W/m2
09:11 22.7 °C 0.5 °C 1021.9 hPa NNE 3.2 km/h 4.7 km/h 23% 0 mm VWS V14.01 W/m2
09:12 15.2 °C 5.1 °C 1020.9 hPa Calm   1.4 km/h 51% 0 mm VWS V14.01 W/m2
09:13 15.1 °C 5.1 °C 1020.9 hPa Calm     51% 0 mm VWS V14.01 W/m2
09:14 15.1 °C 5.1 °C 1020.9 hPa Calm     51% 0 mm VWS V14.01 W/m2
09:15 15.1 °C 5.1 °C 1020.9 hPa Calm     51% 0 mm VWS V14.01 W/m2
09:16 23 °C 0.2 °C 1021.9 hPa East 2.6 km/h 4 km/h 22% 0 mm VWS V14.01 W/m2
09:17 15 °C 5.2 °C 1020.9 hPa Calm     52% 0 mm VWS V14.01 W/m2
09:18 15 °C 5.2 °C 1020.9 hPa Calm     52% 0 mm VWS V14.01 W/m2
09:19 15 °C 5.2 °C 1020.9 hPa SSW 4 km/h 4 km/h 52% 0 mm VWS V14.01 W/m2
09:20 15 °C 5.2 °C 1020.9 hPa SSW 1.4 km/h 4 km/h 52% 0 mm VWS V14.01 W/m2
09:21 22.7 °C -0.1 °C 1021.9 hPa ESE 5.8 km/h 9.3 km/h 22% 0 mm VWS V14.01 W/m2
09:22 14.9 °C 5.1 °C 1020.9 hPa Calm     52% 0 mm VWS V14.01 W/m2
09:23 14.9 °C 5.1 °C 1020.9 hPa SSW 2.1 km/h 2.1 km/h 52% 0 mm VWS V14.01 W/m2
09:24 14.9 °C 5.4 °C 1020.9 hPa SSW 2.6 km/h 2.6 km/h 53% 0 mm VWS V14.01 W/m2
09:25 14.9 °C 5.4 °C 1020.9 hPa SSW 2.1 km/h 2.6 km/h 53% 0 mm VWS V14.01 W/m2
09:26 22.9 °C 0.1 °C 1021.9 hPa ENE 4.3 km/h 5.8 km/h 22% 0 mm VWS V14.01 W/m2
09:27 14.9 °C 5.4 °C 1020.9 hPa Calm   1.8 km/h 53% 0 mm VWS V14.01 W/m2
09:28 14.9 °C 5.4 °C 1020.9 hPa SSE 2.6 km/h 3.2 km/h 53% 0 mm VWS V14.01 W/m2
09:29 14.9 °C 5.4 °C 1020.9 hPa Calm   2.6 km/h 53% 0 mm VWS V14.01 W/m2
09:30 14.9 °C 5.4 °C 1020.9 hPa SSE 2.1 km/h 2.1 km/h 53% 0 mm VWS V14.01 W/m2
09:31 23.5 °C -0.1 °C 1021.9 hPa SSE 2.6 km/h 2.6 km/h 21% 0 mm VWS V14.01 W/m2
09:32 14.9 °C 5.7 °C 1020.9 hPa SSE 3.5 km/h 3.5 km/h 54% 0 mm VWS V14.01 W/m2
09:33 14.8 °C 5.6 °C 1020.9 hPa SSE 1.4 km/h 3.5 km/h 54% 0 mm VWS V14.01 W/m2
09:34 14.8 °C 5.6 °C 1020.9 hPa SSE 1.4 km/h 1.8 km/h 54% 0 mm VWS V14.01 W/m2
09:35 14.8 °C 5.6 °C 1020.9 hPa Calm   1.8 km/h 54% 0 mm VWS V14.01 W/m2
09:36 23.5 °C -0.1 °C 1021.9 hPa East 5.8 km/h 5.8 km/h 21% 0 mm VWS V14.01 W/m2
09:37 14.8 °C 5.6 °C 1020.9 hPa Calm     54% 0 mm VWS V14.01 W/m2
09:38 14.7 °C 5.5 °C 1020.9 hPa Calm   2.1 km/h 54% 0 mm VWS V14.01 W/m2
09:39 14.7 °C 5.5 °C 1020.9 hPa Calm     54% 0 mm VWS V14.01 W/m2
09:40 14.7 °C 5.5 °C 1020.9 hPa Calm   2.1 km/h 54% 0 mm VWS V14.01 W/m2
09:41 24 °C 0.3 °C 1021.9 hPa SE 3.5 km/h 5.5 km/h 21% 0 mm VWS V14.01 W/m2
09:42 14.7 °C 5.8 °C 1020.9 hPa SE 3.5 km/h 3.5 km/h 55% 0 mm VWS V14.01 W/m2
09:43 14.7 °C 5.8 °C 1020.9 hPa Calm   3.5 km/h 55% 0 mm VWS V14.01 W/m2
09:44 14.7 °C 5.8 °C 1020.9 hPa SSE 3.2 km/h 4 km/h 55% 0 mm VWS V14.01 W/m2
09:45 14.7 °C 5.8 °C 1020.9 hPa SSE 3.5 km/h 4 km/h 55% 0 mm VWS V14.01 W/m2
09:46 24.3 °C 0.6 °C 1021.9 hPa ESE 4 km/h 4 km/h 21% 0 mm VWS V14.01 W/m2
09:47 14.8 °C 6.1 °C 1020.9 hPa South 2.6 km/h 5 km/h 56% 0 mm VWS V14.01 W/m2
09:48 14.8 °C 6.1 °C 1020.9 hPa South 3.2 km/h 3.2 km/h 56% 0 mm VWS V14.01 W/m2
09:49 14.8 °C 6.4 °C 1020.9 hPa South 1.4 km/h 3.2 km/h 57% 0 mm VWS V14.01 W/m2
09:50 14.8 °C 6.4 °C 1020.9 hPa SSE 2.1 km/h 4.3 km/h 57% 0 mm VWS V14.01 W/m2
09:51 24.8 °C 1 °C 1021.9 hPa SE 2.6 km/h 2.6 km/h 21% 0 mm VWS V14.01 W/m2
09:52 14.9 °C 6.4 °C 1020.9 hPa SSE 3.2 km/h 4.3 km/h 57% 0 mm VWS V14.01 W/m2
09:53 14.9 °C 6.7 °C 1020.9 hPa SSE 3.5 km/h 3.5 km/h 58% 0 mm VWS V14.01 W/m2
09:54 14.9 °C 6.7 °C 1020.9 hPa South 3.2 km/h 3.5 km/h 58% 0 mm VWS V14.01 W/m2
09:55 14.9 °C 6.7 °C 1020.9 hPa SSE 2.1 km/h 3.5 km/h 58% 0 mm VWS V14.01 W/m2
09:56 24.6 °C 0.2 °C 1021.9 hPa ENE 5 km/h 6.4 km/h 20% 0 mm VWS V14.01 W/m2
09:57 14.9 °C 6.7 °C 1021.9 hPa SSE 2.1 km/h 4.3 km/h 58% 0 mm VWS V14.01 W/m2
09:58 14.9 °C 6.7 °C 1021.9 hPa SSE 4.3 km/h 4.3 km/h 58% 0 mm VWS V14.01 W/m2
09:59 14.9 °C 6.9 °C 1021.9 hPa SSE 3.2 km/h 4.3 km/h 59% 0 mm VWS V14.01 W/m2
10:00 14.9 °C 6.9 °C 1021.9 hPa SSE 1.4 km/h 3.2 km/h 59% 0 mm VWS V14.01 W/m2
10:01 25 °C 0.5 °C 1021.9 hPa NW 4.3 km/h 4.3 km/h 20% 0 mm VWS V14.01 W/m2
10:02 14.9 °C 6.9 °C 1021.9 hPa SE 3.2 km/h 4.7 km/h 59% 0 mm VWS V14.01 W/m2
10:03 14.9 °C 6.9 °C 1021.9 hPa ESE 3.5 km/h 3.5 km/h 59% 0 mm VWS V14.01 W/m2
10:04 14.9 °C 6.9 °C 1021.9 hPa SSE 3.5 km/h 4 km/h 59% 0 mm VWS V14.01 W/m2
10:05 14.9 °C 7.2 °C 1021.9 hPa SSE 3.2 km/h 3.5 km/h 60% 0 mm VWS V14.01 W/m2
10:06 25.3 °C -0.7 °C 1021.9 hPa Calm   3.2 km/h 18% 0 mm VWS V14.01 W/m2
10:07 14.9 °C 7.2 °C 1021.9 hPa SSE 4 km/h 4 km/h 60% 0 mm VWS V14.01 W/m2
10:08 14.9 °C 7.2 °C 1021.9 hPa Calm   4 km/h 60% 0 mm VWS V14.01 W/m2
10:09 14.9 °C 7.2 °C 1021.9 hPa Calm     60% 0 mm VWS V14.01 W/m2
10:10 14.9 °C 7.2 °C 1021.9 hPa Calm     60% 0 mm VWS V14.01 W/m2
10:11 25.4 °C -0.6 °C 1022.9 hPa SSE 1.8 km/h 3.5 km/h 18% 0 mm VWS V14.01 W/m2
10:12 14.9 °C 6.9 °C 1020.9 hPa Calm     59% 0 mm VWS V14.01 W/m2
10:13 14.9 °C 6.9 °C 1020.9 hPa Calm   5.8 km/h 59% 0 mm VWS V14.01 W/m2
10:14 14.9 °C 6.9 °C 1020.9 hPa Calm     59% 0 mm VWS V14.01 W/m2
10:15 14.9 °C 6.9 °C 1020.9 hPa SSE 2.6 km/h 3.2 km/h 59% 0 mm VWS V14.01 W/m2
10:16 25.9 °C -0.2 °C 1022.9 hPa NNE 3.5 km/h 3.5 km/h 18% 0 mm VWS V14.01 W/m2
10:17 14.8 °C 6.9 °C 1020.9 hPa Calm     59% 0 mm VWS V14.01 W/m2
10:18 14.8 °C 6.9 °C 1020.9 hPa Calm     59% 0 mm VWS V14.01 W/m2
10:19 14.8 °C 6.9 °C 1020.9 hPa Calm     59% 0 mm VWS V14.01 W/m2
10:20 14.8 °C 6.9 °C 1020.9 hPa SSE 4.7 km/h 4.7 km/h 59% 0 mm VWS V14.01 W/m2
10:21 26.3 °C -2.4 °C 1022.9 hPa SSE 5 km/h 5.8 km/h 15% 0 mm VWS V14.01 W/m2
10:27 26.4 °C -2.3 °C 1021.9 hPa South 2.6 km/h 3.5 km/h 15% 0 mm VWS V14.01 W/m2
10:32 26.8 °C -2 °C 1021.9 hPa SSE 5 km/h 5 km/h 15% 0 mm VWS V14.01 W/m2
10:37 26.7 °C -2.1 °C 1021.9 hPa SE 4 km/h 4 km/h 15% 0 mm VWS V14.01 W/m2
10:42 26.9 °C -1.9 °C 1021.9 hPa SSE 4 km/h 4 km/h 15% 0 mm VWS V14.01 W/m2
10:47 27.1 °C -2.7 °C 1021.9 hPa SSW 5.5 km/h 5.5 km/h 14% 0 mm VWS V14.01 W/m2
10:52 26.8 °C -2 °C 1021.9 hPa South 4 km/h 5.5 km/h 15% 0 mm VWS V14.01 W/m2
10:57 26 °C -2.6 °C 1021.9 hPa WNW 3.5 km/h 5.8 km/h 15% 0 mm VWS V14.01 W/m2
11:02 25.9 °C -2.7 °C 1021.9 hPa NW 9.3 km/h 9.3 km/h 15% 0 mm VWS V14.01 W/m2
11:07 25.4 °C -3.1 °C 1021.9 hPa WSW 4.3 km/h 5.5 km/h 15% 0 mm VWS V14.01 W/m2
11:12 25.4 °C -3.1 °C 1021.9 hPa WSW 2.6 km/h 2.6 km/h 15% 0 mm VWS V14.01 W/m2
11:17 25.3 °C -0.7 °C 1021.9 hPa WSW 4 km/h 4 km/h 18% 0 mm VWS V14.01 W/m2
11:22 25.1 °C -0.9 °C 1021.9 hPa West 4.7 km/h 4.7 km/h 18% 0 mm VWS V14.01 W/m2
11:27 25.1 °C -0.9 °C 1021.9 hPa WSW 4 km/h 5.5 km/h 18% 0 mm VWS V14.01 W/m2
11:32 25.1 °C -0.9 °C 1021.9 hPa WSW 3.2 km/h 4.3 km/h 18% 0 mm VWS V14.01 W/m2
11:37 25.2 °C -0.8 °C 1021.9 hPa WNW 10.1 km/h 10.1 km/h 18% 0 mm VWS V14.01 W/m2
11:42 24.4 °C -1.4 °C 1021.9 hPa WSW 9.7 km/h 9.7 km/h 18% 0 mm VWS V14.01 W/m2
11:47 24.1 °C -0.2 °C 1021.9 hPa WNW 5.5 km/h 6.1 km/h 20% 0 mm VWS V14.01 W/m2
11:52 24 °C -0.3 °C 1021.9 hPa South 4.7 km/h 7.9 km/h 20% 0 mm VWS V14.01 W/m2
11:57 24.4 °C 0.7 °C 1020.9 hPa WNW 5 km/h 6.1 km/h 21% 0 mm VWS V14.01 W/m2
12:01 24.8 °C 1 °C 1020.9 hPa WNW 3.2 km/h 6.9 km/h 21% 0 mm VWS V14.01 W/m2
12:06 25 °C 0.5 °C 1020.9 hPa SSW 6.1 km/h 9.3 km/h 20% 0 mm VWS V14.01 W/m2
12:12 24.6 °C 0.2 °C 1020.9 hPa WSW 9.3 km/h 9.3 km/h 20% 0 mm VWS V14.01 W/m2
12:17 24.3 °C 0.6 °C 1020.9 hPa WSW 3.5 km/h 4.7 km/h 21% 0 mm VWS V14.01 W/m2
12:22 24.2 °C 0.5 °C 1020.9 hPa WSW 13.7 km/h 13.7 km/h 21% 0 mm VWS V14.01 W/m2
12:27 24.2 °C 0.5 °C 1020.9 hPa WNW 5.8 km/h 6.1 km/h 21% 0 mm VWS V14.01 W/m2
12:32 24.6 °C 0.8 °C 1020.9 hPa NNW 5.8 km/h 9.7 km/h 21% 0 mm VWS V14.01 W/m2
12:37 24.3 °C 0.6 °C 1020.9 hPa NNE 6.9 km/h 10.5 km/h 21% 0 mm VWS V14.01 W/m2
12:42 24 °C -0.3 °C 1019.9 hPa SSE 9 km/h 9 km/h 20% 0 mm VWS V14.01 W/m2
12:47 24 °C 0.3 °C 1019.9 hPa WSW 9.3 km/h 10.5 km/h 21% 0 mm VWS V14.01 W/m2
12:52 23.8 °C 0.8 °C 1019.9 hPa SSW 6.9 km/h 6.9 km/h 22% 0 mm VWS V14.01 W/m2
12:57 24.1 °C 0.4 °C 1019.9 hPa WNW 11.9 km/h 11.9 km/h 21% 0 mm VWS V14.01 W/m2
13:02 24.5 °C 0.8 °C 1019.9 hPa WSW 6.4 km/h 9.7 km/h 21% 0 mm VWS V14.01 W/m2
13:07 24.5 °C 0.8 °C 1019.9 hPa WNW 10.5 km/h 10.8 km/h 21% 0 mm VWS V14.01 W/m2
13:12 24.8 °C 1 °C 1019.9 hPa WSW 9.3 km/h 9.3 km/h 21% 0 mm VWS V14.01 W/m2
13:17 24.9 °C 1.1 °C 1019.9 hPa NNW 4.3 km/h 6.1 km/h 21% 0 mm VWS V14.01 W/m2
13:22 25.3 °C 0.7 °C 1019.9 hPa WSW 4.3 km/h 6.1 km/h 20% 0 mm VWS V14.01 W/m2
13:28 25.5 °C 0.9 °C 1019.9 hPa SSW 4 km/h 5.8 km/h 20% 0 mm VWS V14.01 W/m2
13:33 25.2 °C 0.7 °C 1019.9 hPa SSW 9.3 km/h 9.3 km/h 20% 0 mm VWS V14.01 W/m2
13:38 25.5 °C 0.9 °C 1019.9 hPa SSW 6.1 km/h 14 km/h 20% 0 mm VWS V14.01 W/m2
13:43 24.7 °C 0.9 °C 1019.9 hPa South 9 km/h 9 km/h 21% 0 mm VWS V14.01 W/m2
13:48 24.7 °C 0.9 °C 1019.9 hPa NNW 5.5 km/h 11.9 km/h 21% 0 mm VWS V14.01 W/m2
13:53 24.3 °C 0.6 °C 1019.9 hPa SSE 9 km/h 10.5 km/h 21% 0 mm VWS V14.01 W/m2
13:58 23.7 °C 0.7 °C 1019.9 hPa WNW 10.5 km/h 10.5 km/h 22% 0 mm VWS V14.01 W/m2
Compliments of Weather Underground